<?xml version="1.0" encoding="UTF-8" standalone="no" ?>
<gpx xmlns="http://www.topografix.com/GPX/1/1" xmlns:xsi="http://www.w3.org/2001/XMLSchema-instance" xsi:schemaLocation="http://www.topografix.com/GPX/1/1 http://www.topografix.com/GPX/1/1/gpx.xsd" version="1.1" creator="VisuGPX - https://www.visugpx.com">
  <metadata>
    <name>83-D-Besse sur Issole</name>
    <desc><![CDATA[83-D-Besse sur Issole : Sur les traces de Gaspard de Besse 
2024-04-07]]></desc>
  </metadata>
  <trk>
    <name><![CDATA[visorando-47808649]]></name>
    <extensions>
      <line xmlns="http://www.topografix.com/GPX/gpx_style/0/2">
        <width>4</width>
      </line>
    </extensions>
    <trkseg>
      <trkpt lat="43.34826" lon="6.17778">
        <ele>298</ele>
        <time>2024-04-07T09:25:33.000Z</time>
      </trkpt>
      <trkpt lat="43.34837" lon="6.17766">
        <ele>298</ele>
        <time>2024-04-07T09:26:58.000Z</time>
      </trkpt>
      <trkpt lat="43.34847" lon="6.17752">
        <ele>298</ele>
        <time>2024-04-07T09:27:23.000Z</time>
      </trkpt>
      <trkpt lat="43.34858" lon="6.17731">
        <ele>298</ele>
        <time>2024-04-07T09:27:44.000Z</time>
      </trkpt>
      <trkpt lat="43.34876" lon="6.17726">
        <ele>298</ele>
        <time>2024-04-07T09:28:02.000Z</time>
      </trkpt>
      <trkpt lat="43.34888" lon="6.17715">
        <ele>298</ele>
        <time>2024-04-07T09:28:21.000Z</time>
      </trkpt>
      <trkpt lat="43.34899" lon="6.177">
        <ele>297</ele>
        <time>2024-04-07T09:28:58.000Z</time>
      </trkpt>
      <trkpt lat="43.34919" lon="6.17688">
        <ele>298</ele>
        <time>2024-04-07T09:29:12.000Z</time>
      </trkpt>
      <trkpt lat="43.34935" lon="6.17676">
        <ele>298</ele>
        <time>2024-04-07T09:29:26.000Z</time>
      </trkpt>
      <trkpt lat="43.34954" lon="6.1764">
        <ele>298</ele>
        <time>2024-04-07T09:30:59.000Z</time>
      </trkpt>
      <trkpt lat="43.34967" lon="6.17654">
        <ele>298</ele>
        <time>2024-04-07T09:31:25.000Z</time>
      </trkpt>
      <trkpt lat="43.34976" lon="6.17639">
        <ele>298</ele>
        <time>2024-04-07T09:32:10.000Z</time>
      </trkpt>
      <trkpt lat="43.34982" lon="6.17617">
        <ele>298</ele>
        <time>2024-04-07T09:32:50.000Z</time>
      </trkpt>
      <trkpt lat="43.34982" lon="6.17597">
        <ele>299</ele>
        <time>2024-04-07T09:33:15.000Z</time>
      </trkpt>
      <trkpt lat="43.34988" lon="6.17578">
        <ele>299</ele>
        <time>2024-04-07T09:33:47.000Z</time>
      </trkpt>
      <trkpt lat="43.34998" lon="6.1756">
        <ele>302</ele>
        <time>2024-04-07T09:34:00.000Z</time>
      </trkpt>
      <trkpt lat="43.35014" lon="6.17563">
        <ele>302</ele>
        <time>2024-04-07T09:34:25.000Z</time>
      </trkpt>
      <trkpt lat="43.3503" lon="6.17562">
        <ele>297</ele>
        <time>2024-04-07T09:34:44.000Z</time>
      </trkpt>
      <trkpt lat="43.35037" lon="6.17583">
        <ele>297</ele>
        <time>2024-04-07T09:35:27.000Z</time>
      </trkpt>
      <trkpt lat="43.35037" lon="6.17602">
        <ele>297</ele>
        <time>2024-04-07T09:35:51.000Z</time>
      </trkpt>
      <trkpt lat="43.35046" lon="6.17623">
        <ele>297</ele>
        <time>2024-04-07T09:36:06.000Z</time>
      </trkpt>
      <trkpt lat="43.35059" lon="6.17637">
        <ele>297</ele>
        <time>2024-04-07T09:36:20.000Z</time>
      </trkpt>
      <trkpt lat="43.3507" lon="6.17651">
        <ele>297</ele>
        <time>2024-04-07T09:36:35.000Z</time>
      </trkpt>
      <trkpt lat="43.35081" lon="6.17673">
        <ele>297</ele>
        <time>2024-04-07T09:37:14.000Z</time>
      </trkpt>
      <trkpt lat="43.35081" lon="6.17698">
        <ele>302</ele>
        <time>2024-04-07T09:37:28.000Z</time>
      </trkpt>
      <trkpt lat="43.35088" lon="6.17715">
        <ele>302</ele>
        <time>2024-04-07T09:37:33.000Z</time>
      </trkpt>
      <trkpt lat="43.35091" lon="6.17734">
        <ele>296</ele>
        <time>2024-04-07T09:37:52.000Z</time>
      </trkpt>
      <trkpt lat="43.35096" lon="6.1776">
        <ele>297</ele>
        <time>2024-04-07T09:38:07.000Z</time>
      </trkpt>
      <trkpt lat="43.35097" lon="6.1778">
        <ele>297</ele>
        <time>2024-04-07T09:38:39.000Z</time>
      </trkpt>
      <trkpt lat="43.35113" lon="6.17768">
        <ele>296</ele>
        <time>2024-04-07T09:38:44.000Z</time>
      </trkpt>
      <trkpt lat="43.35132" lon="6.17758">
        <ele>296</ele>
        <time>2024-04-07T09:39:00.000Z</time>
      </trkpt>
      <trkpt lat="43.35146" lon="6.17743">
        <ele>296</ele>
        <time>2024-04-07T09:39:09.000Z</time>
      </trkpt>
      <trkpt lat="43.35158" lon="6.17723">
        <ele>296</ele>
        <time>2024-04-07T09:39:24.000Z</time>
      </trkpt>
      <trkpt lat="43.35156" lon="6.17704">
        <ele>296</ele>
        <time>2024-04-07T09:39:48.000Z</time>
      </trkpt>
      <trkpt lat="43.35164" lon="6.17687">
        <ele>296</ele>
        <time>2024-04-07T09:39:58.000Z</time>
      </trkpt>
      <trkpt lat="43.35162" lon="6.17662">
        <ele>297</ele>
        <time>2024-04-07T09:40:12.000Z</time>
      </trkpt>
      <trkpt lat="43.35192" lon="6.17686">
        <ele>297</ele>
        <time>2024-04-07T09:40:22.000Z</time>
      </trkpt>
      <trkpt lat="43.35211" lon="6.17678">
        <ele>297</ele>
        <time>2024-04-07T09:40:36.000Z</time>
      </trkpt>
      <trkpt lat="43.35222" lon="6.17664">
        <ele>297</ele>
        <time>2024-04-07T09:40:46.000Z</time>
      </trkpt>
      <trkpt lat="43.35217" lon="6.17639">
        <ele>296</ele>
        <time>2024-04-07T09:40:51.000Z</time>
      </trkpt>
      <trkpt lat="43.35225" lon="6.17622">
        <ele>297</ele>
        <time>2024-04-07T09:41:01.000Z</time>
      </trkpt>
      <trkpt lat="43.3523" lon="6.17603">
        <ele>297</ele>
        <time>2024-04-07T09:41:11.000Z</time>
      </trkpt>
      <trkpt lat="43.35233" lon="6.17579">
        <ele>302</ele>
        <time>2024-04-07T09:41:25.000Z</time>
      </trkpt>
      <trkpt lat="43.35232" lon="6.17553">
        <ele>296</ele>
        <time>2024-04-07T09:41:39.000Z</time>
      </trkpt>
      <trkpt lat="43.35231" lon="6.17533">
        <ele>297</ele>
        <time>2024-04-07T09:41:49.000Z</time>
      </trkpt>
      <trkpt lat="43.35231" lon="6.17509">
        <ele>296</ele>
        <time>2024-04-07T09:42:05.000Z</time>
      </trkpt>
      <trkpt lat="43.35224" lon="6.17491">
        <ele>296</ele>
        <time>2024-04-07T09:42:19.000Z</time>
      </trkpt>
      <trkpt lat="43.35211" lon="6.17482">
        <ele>296</ele>
        <time>2024-04-07T09:42:28.000Z</time>
      </trkpt>
      <trkpt lat="43.35195" lon="6.17467">
        <ele>297</ele>
        <time>2024-04-07T09:42:43.000Z</time>
      </trkpt>
      <trkpt lat="43.35181" lon="6.17511">
        <ele>297</ele>
        <time>2024-04-07T09:42:50.000Z</time>
      </trkpt>
      <trkpt lat="43.3517" lon="6.17473">
        <ele>296</ele>
        <time>2024-04-07T09:43:15.000Z</time>
      </trkpt>
      <trkpt lat="43.35163" lon="6.17426">
        <ele>296</ele>
        <time>2024-04-07T09:43:21.000Z</time>
      </trkpt>
      <trkpt lat="43.35153" lon="6.17447">
        <ele>297</ele>
        <time>2024-04-07T09:43:36.000Z</time>
      </trkpt>
      <trkpt lat="43.35146" lon="6.17466">
        <ele>297</ele>
        <time>2024-04-07T09:43:46.000Z</time>
      </trkpt>
      <trkpt lat="43.35131" lon="6.17465">
        <ele>297</ele>
        <time>2024-04-07T09:44:00.000Z</time>
      </trkpt>
      <trkpt lat="43.35123" lon="6.17444">
        <ele>297</ele>
        <time>2024-04-07T09:44:16.000Z</time>
      </trkpt>
      <trkpt lat="43.35109" lon="6.17439">
        <ele>297</ele>
        <time>2024-04-07T09:44:45.000Z</time>
      </trkpt>
      <trkpt lat="43.35095" lon="6.17435">
        <ele>297</ele>
        <time>2024-04-07T09:44:55.000Z</time>
      </trkpt>
      <trkpt lat="43.35078" lon="6.17443">
        <ele>297</ele>
        <time>2024-04-07T09:45:10.000Z</time>
      </trkpt>
      <trkpt lat="43.35065" lon="6.17434">
        <ele>297</ele>
        <time>2024-04-07T09:45:24.000Z</time>
      </trkpt>
      <trkpt lat="43.35055" lon="6.17417">
        <ele>297</ele>
        <time>2024-04-07T09:48:07.000Z</time>
      </trkpt>
      <trkpt lat="43.35046" lon="6.17403">
        <ele>297</ele>
        <time>2024-04-07T09:48:22.000Z</time>
      </trkpt>
      <trkpt lat="43.35038" lon="6.17384">
        <ele>297</ele>
        <time>2024-04-07T09:48:36.000Z</time>
      </trkpt>
      <trkpt lat="43.35053" lon="6.1738">
        <ele>297</ele>
        <time>2024-04-07T09:48:47.000Z</time>
      </trkpt>
      <trkpt lat="43.3507" lon="6.17371">
        <ele>297</ele>
        <time>2024-04-07T09:49:06.000Z</time>
      </trkpt>
      <trkpt lat="43.35082" lon="6.1736">
        <ele>299</ele>
        <time>2024-04-07T09:49:31.000Z</time>
      </trkpt>
      <trkpt lat="43.35099" lon="6.17349">
        <ele>305</ele>
        <time>2024-04-07T09:49:45.000Z</time>
      </trkpt>
      <trkpt lat="43.35119" lon="6.17351">
        <ele>305</ele>
        <time>2024-04-07T09:50:00.000Z</time>
      </trkpt>
      <trkpt lat="43.35138" lon="6.17349">
        <ele>305</ele>
        <time>2024-04-07T09:50:15.000Z</time>
      </trkpt>
      <trkpt lat="43.35156" lon="6.17351">
        <ele>304</ele>
        <time>2024-04-07T09:50:30.000Z</time>
      </trkpt>
      <trkpt lat="43.35173" lon="6.17353">
        <ele>304</ele>
        <time>2024-04-07T09:50:44.000Z</time>
      </trkpt>
      <trkpt lat="43.3519" lon="6.17355">
        <ele>313</ele>
        <time>2024-04-07T09:50:58.000Z</time>
      </trkpt>
      <trkpt lat="43.35207" lon="6.17342">
        <ele>314</ele>
        <time>2024-04-07T09:51:18.000Z</time>
      </trkpt>
      <trkpt lat="43.35214" lon="6.17323">
        <ele>313</ele>
        <time>2024-04-07T09:51:31.000Z</time>
      </trkpt>
      <trkpt lat="43.35226" lon="6.17306">
        <ele>314</ele>
        <time>2024-04-07T09:51:46.000Z</time>
      </trkpt>
      <trkpt lat="43.35231" lon="6.17285">
        <ele>314</ele>
        <time>2024-04-07T09:52:00.000Z</time>
      </trkpt>
      <trkpt lat="43.35227" lon="6.17264">
        <ele>314</ele>
        <time>2024-04-07T09:52:11.000Z</time>
      </trkpt>
      <trkpt lat="43.35231" lon="6.17238">
        <ele>314</ele>
        <time>2024-04-07T09:52:25.000Z</time>
      </trkpt>
      <trkpt lat="43.35243" lon="6.17221">
        <ele>314</ele>
        <time>2024-04-07T09:52:39.000Z</time>
      </trkpt>
      <trkpt lat="43.35252" lon="6.172">
        <ele>314</ele>
        <time>2024-04-07T09:52:54.000Z</time>
      </trkpt>
      <trkpt lat="43.35265" lon="6.17186">
        <ele>314</ele>
        <time>2024-04-07T09:53:08.000Z</time>
      </trkpt>
      <trkpt lat="43.35277" lon="6.17173">
        <ele>314</ele>
        <time>2024-04-07T09:53:22.000Z</time>
      </trkpt>
      <trkpt lat="43.35289" lon="6.17156">
        <ele>314</ele>
        <time>2024-04-07T09:53:36.000Z</time>
      </trkpt>
      <trkpt lat="43.35301" lon="6.17142">
        <ele>314</ele>
        <time>2024-04-07T09:53:51.000Z</time>
      </trkpt>
      <trkpt lat="43.35308" lon="6.17118">
        <ele>314</ele>
        <time>2024-04-07T09:54:05.000Z</time>
      </trkpt>
      <trkpt lat="43.35322" lon="6.17101">
        <ele>314</ele>
        <time>2024-04-07T09:54:20.000Z</time>
      </trkpt>
      <trkpt lat="43.35327" lon="6.17078">
        <ele>314</ele>
        <time>2024-04-07T09:54:42.000Z</time>
      </trkpt>
      <trkpt lat="43.35339" lon="6.17065">
        <ele>314</ele>
        <time>2024-04-07T09:58:22.000Z</time>
      </trkpt>
      <trkpt lat="43.35351" lon="6.1705">
        <ele>318</ele>
        <time>2024-04-07T09:58:37.000Z</time>
      </trkpt>
      <trkpt lat="43.35365" lon="6.17036">
        <ele>321</ele>
        <time>2024-04-07T09:58:51.000Z</time>
      </trkpt>
      <trkpt lat="43.35374" lon="6.17021">
        <ele>323</ele>
        <time>2024-04-07T09:59:06.000Z</time>
      </trkpt>
      <trkpt lat="43.35392" lon="6.17008">
        <ele>325</ele>
        <time>2024-04-07T09:59:21.000Z</time>
      </trkpt>
      <trkpt lat="43.35409" lon="6.17004">
        <ele>327</ele>
        <time>2024-04-07T09:59:35.000Z</time>
      </trkpt>
      <trkpt lat="43.35428" lon="6.17">
        <ele>331</ele>
        <time>2024-04-07T09:59:54.000Z</time>
      </trkpt>
      <trkpt lat="43.35441" lon="6.17002">
        <ele>334</ele>
        <time>2024-04-07T10:00:03.000Z</time>
      </trkpt>
      <trkpt lat="43.35447" lon="6.17025">
        <ele>337</ele>
        <time>2024-04-07T10:00:17.000Z</time>
      </trkpt>
      <trkpt lat="43.35448" lon="6.17046">
        <ele>342</ele>
        <time>2024-04-07T10:00:31.000Z</time>
      </trkpt>
      <trkpt lat="43.3545" lon="6.17069">
        <ele>342</ele>
        <time>2024-04-07T10:00:45.000Z</time>
      </trkpt>
      <trkpt lat="43.3545" lon="6.17088">
        <ele>343</ele>
        <time>2024-04-07T10:00:59.000Z</time>
      </trkpt>
      <trkpt lat="43.3545" lon="6.17114">
        <ele>350</ele>
        <time>2024-04-07T10:01:15.000Z</time>
      </trkpt>
      <trkpt lat="43.35463" lon="6.17124">
        <ele>351</ele>
        <time>2024-04-07T10:01:29.000Z</time>
      </trkpt>
      <trkpt lat="43.35472" lon="6.17104">
        <ele>351</ele>
        <time>2024-04-07T10:01:44.000Z</time>
      </trkpt>
      <trkpt lat="43.35478" lon="6.17082">
        <ele>351</ele>
        <time>2024-04-07T10:01:58.000Z</time>
      </trkpt>
      <trkpt lat="43.35489" lon="6.1707">
        <ele>324</ele>
        <time>2024-04-07T10:02:13.000Z</time>
      </trkpt>
      <trkpt lat="43.35491" lon="6.1709">
        <ele>335</ele>
        <time>2024-04-07T10:02:31.000Z</time>
      </trkpt>
      <trkpt lat="43.35492" lon="6.17113">
        <ele>345</ele>
        <time>2024-04-07T10:02:50.000Z</time>
      </trkpt>
      <trkpt lat="43.35496" lon="6.17134">
        <ele>348</ele>
        <time>2024-04-07T10:03:05.000Z</time>
      </trkpt>
      <trkpt lat="43.355" lon="6.17155">
        <ele>354</ele>
        <time>2024-04-07T10:03:24.000Z</time>
      </trkpt>
      <trkpt lat="43.35514" lon="6.17141">
        <ele>362</ele>
        <time>2024-04-07T10:03:57.000Z</time>
      </trkpt>
      <trkpt lat="43.35522" lon="6.17122">
        <ele>371</ele>
        <time>2024-04-07T10:04:16.000Z</time>
      </trkpt>
      <trkpt lat="43.35527" lon="6.17103">
        <ele>374</ele>
        <time>2024-04-07T10:04:30.000Z</time>
      </trkpt>
      <trkpt lat="43.35541" lon="6.17092">
        <ele>347</ele>
        <time>2024-04-07T10:04:49.000Z</time>
      </trkpt>
      <trkpt lat="43.35551" lon="6.17079">
        <ele>355</ele>
        <time>2024-04-07T10:05:03.000Z</time>
      </trkpt>
      <trkpt lat="43.35556" lon="6.1706">
        <ele>362</ele>
        <time>2024-04-07T10:05:18.000Z</time>
      </trkpt>
      <trkpt lat="43.35568" lon="6.17047">
        <ele>367</ele>
        <time>2024-04-07T10:05:32.000Z</time>
      </trkpt>
      <trkpt lat="43.35577" lon="6.17032">
        <ele>371</ele>
        <time>2024-04-07T10:05:47.000Z</time>
      </trkpt>
      <trkpt lat="43.35587" lon="6.17016">
        <ele>373</ele>
        <time>2024-04-07T10:06:02.000Z</time>
      </trkpt>
      <trkpt lat="43.35599" lon="6.17006">
        <ele>372</ele>
        <time>2024-04-07T10:06:16.000Z</time>
      </trkpt>
      <trkpt lat="43.3561" lon="6.16989">
        <ele>375</ele>
        <time>2024-04-07T10:06:31.000Z</time>
      </trkpt>
      <trkpt lat="43.35621" lon="6.16974">
        <ele>378</ele>
        <time>2024-04-07T10:06:45.000Z</time>
      </trkpt>
      <trkpt lat="43.35633" lon="6.16959">
        <ele>379</ele>
        <time>2024-04-07T10:07:00.000Z</time>
      </trkpt>
      <trkpt lat="43.35645" lon="6.16945">
        <ele>380</ele>
        <time>2024-04-07T10:07:14.000Z</time>
      </trkpt>
      <trkpt lat="43.35656" lon="6.16928">
        <ele>386</ele>
        <time>2024-04-07T10:07:34.000Z</time>
      </trkpt>
      <trkpt lat="43.35667" lon="6.16914">
        <ele>389</ele>
        <time>2024-04-07T10:07:53.000Z</time>
      </trkpt>
      <trkpt lat="43.35683" lon="6.1691">
        <ele>392</ele>
        <time>2024-04-07T10:08:09.000Z</time>
      </trkpt>
      <trkpt lat="43.35699" lon="6.16907">
        <ele>394</ele>
        <time>2024-04-07T10:08:22.000Z</time>
      </trkpt>
      <trkpt lat="43.35714" lon="6.1691">
        <ele>395</ele>
        <time>2024-04-07T10:08:37.000Z</time>
      </trkpt>
      <trkpt lat="43.35728" lon="6.16901">
        <ele>396</ele>
        <time>2024-04-07T10:11:05.000Z</time>
      </trkpt>
      <trkpt lat="43.35738" lon="6.16882">
        <ele>400</ele>
        <time>2024-04-07T10:15:20.000Z</time>
      </trkpt>
      <trkpt lat="43.3575" lon="6.16865">
        <ele>397</ele>
        <time>2024-04-07T10:15:35.000Z</time>
      </trkpt>
      <trkpt lat="43.35755" lon="6.16843">
        <ele>397</ele>
        <time>2024-04-07T10:15:49.000Z</time>
      </trkpt>
      <trkpt lat="43.35765" lon="6.16825">
        <ele>397</ele>
        <time>2024-04-07T10:16:04.000Z</time>
      </trkpt>
      <trkpt lat="43.35776" lon="6.16811">
        <ele>397</ele>
        <time>2024-04-07T10:16:19.000Z</time>
      </trkpt>
      <trkpt lat="43.35787" lon="6.16797">
        <ele>397</ele>
        <time>2024-04-07T10:16:37.000Z</time>
      </trkpt>
      <trkpt lat="43.35804" lon="6.16794">
        <ele>397</ele>
        <time>2024-04-07T10:16:57.000Z</time>
      </trkpt>
      <trkpt lat="43.35821" lon="6.16791">
        <ele>397</ele>
        <time>2024-04-07T10:17:12.000Z</time>
      </trkpt>
      <trkpt lat="43.35837" lon="6.16784">
        <ele>397</ele>
        <time>2024-04-07T10:17:26.000Z</time>
      </trkpt>
      <trkpt lat="43.35856" lon="6.16773">
        <ele>397</ele>
        <time>2024-04-07T10:17:40.000Z</time>
      </trkpt>
      <trkpt lat="43.35872" lon="6.16762">
        <ele>397</ele>
        <time>2024-04-07T10:17:55.000Z</time>
      </trkpt>
      <trkpt lat="43.35886" lon="6.16747">
        <ele>397</ele>
        <time>2024-04-07T10:18:10.000Z</time>
      </trkpt>
      <trkpt lat="43.35897" lon="6.16731">
        <ele>397</ele>
        <time>2024-04-07T10:18:24.000Z</time>
      </trkpt>
      <trkpt lat="43.35908" lon="6.16715">
        <ele>397</ele>
        <time>2024-04-07T10:18:37.000Z</time>
      </trkpt>
      <trkpt lat="43.35922" lon="6.167">
        <ele>397</ele>
        <time>2024-04-07T10:18:52.000Z</time>
      </trkpt>
      <trkpt lat="43.35935" lon="6.16689">
        <ele>397</ele>
        <time>2024-04-07T10:19:06.000Z</time>
      </trkpt>
      <trkpt lat="43.35949" lon="6.16673">
        <ele>397</ele>
        <time>2024-04-07T10:19:26.000Z</time>
      </trkpt>
      <trkpt lat="43.35959" lon="6.16659">
        <ele>423</ele>
        <time>2024-04-07T10:19:41.000Z</time>
      </trkpt>
      <trkpt lat="43.3597" lon="6.16645">
        <ele>424</ele>
        <time>2024-04-07T10:19:55.000Z</time>
      </trkpt>
      <trkpt lat="43.35983" lon="6.16636">
        <ele>424</ele>
        <time>2024-04-07T10:20:09.000Z</time>
      </trkpt>
      <trkpt lat="43.35992" lon="6.16615">
        <ele>411</ele>
        <time>2024-04-07T10:20:29.000Z</time>
      </trkpt>
      <trkpt lat="43.35994" lon="6.16594">
        <ele>414</ele>
        <time>2024-04-07T10:20:43.000Z</time>
      </trkpt>
      <trkpt lat="43.35999" lon="6.16572">
        <ele>415</ele>
        <time>2024-04-07T10:20:58.000Z</time>
      </trkpt>
      <trkpt lat="43.36004" lon="6.16548">
        <ele>418</ele>
        <time>2024-04-07T10:21:12.000Z</time>
      </trkpt>
      <trkpt lat="43.36009" lon="6.16526">
        <ele>418</ele>
        <time>2024-04-07T10:21:27.000Z</time>
      </trkpt>
      <trkpt lat="43.36013" lon="6.16506">
        <ele>419</ele>
        <time>2024-04-07T10:21:41.000Z</time>
      </trkpt>
      <trkpt lat="43.36016" lon="6.16484">
        <ele>422</ele>
        <time>2024-04-07T10:21:55.000Z</time>
      </trkpt>
      <trkpt lat="43.3602" lon="6.16461">
        <ele>423</ele>
        <time>2024-04-07T10:22:09.000Z</time>
      </trkpt>
      <trkpt lat="43.3602" lon="6.1644">
        <ele>429</ele>
        <time>2024-04-07T10:22:30.000Z</time>
      </trkpt>
      <trkpt lat="43.36024" lon="6.16417">
        <ele>434</ele>
        <time>2024-04-07T10:22:44.000Z</time>
      </trkpt>
      <trkpt lat="43.36027" lon="6.16397">
        <ele>439</ele>
        <time>2024-04-07T10:22:58.000Z</time>
      </trkpt>
      <trkpt lat="43.3603" lon="6.16376">
        <ele>443</ele>
        <time>2024-04-07T10:23:13.000Z</time>
      </trkpt>
      <trkpt lat="43.3603" lon="6.16352">
        <ele>431</ele>
        <time>2024-04-07T10:23:26.000Z</time>
      </trkpt>
      <trkpt lat="43.36029" lon="6.16333">
        <ele>447</ele>
        <time>2024-04-07T10:23:41.000Z</time>
      </trkpt>
      <trkpt lat="43.36031" lon="6.16308">
        <ele>447</ele>
        <time>2024-04-07T10:23:57.000Z</time>
      </trkpt>
      <trkpt lat="43.36036" lon="6.16286">
        <ele>449</ele>
        <time>2024-04-07T10:24:12.000Z</time>
      </trkpt>
      <trkpt lat="43.36044" lon="6.16269">
        <ele>451</ele>
        <time>2024-04-07T10:24:26.000Z</time>
      </trkpt>
      <trkpt lat="43.36048" lon="6.16251">
        <ele>451</ele>
        <time>2024-04-07T10:24:36.000Z</time>
      </trkpt>
      <trkpt lat="43.36053" lon="6.16228">
        <ele>453</ele>
        <time>2024-04-07T10:24:51.000Z</time>
      </trkpt>
      <trkpt lat="43.3605" lon="6.16206">
        <ele>453</ele>
        <time>2024-04-07T10:25:06.000Z</time>
      </trkpt>
      <trkpt lat="43.36048" lon="6.16185">
        <ele>455</ele>
        <time>2024-04-07T10:25:20.000Z</time>
      </trkpt>
      <trkpt lat="43.36044" lon="6.16167">
        <ele>458</ele>
        <time>2024-04-07T10:25:35.000Z</time>
      </trkpt>
      <trkpt lat="43.36036" lon="6.16148">
        <ele>460</ele>
        <time>2024-04-07T10:25:49.000Z</time>
      </trkpt>
      <trkpt lat="43.36035" lon="6.16124">
        <ele>461</ele>
        <time>2024-04-07T10:26:03.000Z</time>
      </trkpt>
      <trkpt lat="43.36046" lon="6.16085">
        <ele>427</ele>
        <time>2024-04-07T10:26:12.000Z</time>
      </trkpt>
      <trkpt lat="43.36059" lon="6.16078">
        <ele>460</ele>
        <time>2024-04-07T10:26:51.000Z</time>
      </trkpt>
      <trkpt lat="43.36073" lon="6.16087">
        <ele>464</ele>
        <time>2024-04-07T10:27:06.000Z</time>
      </trkpt>
      <trkpt lat="43.36089" lon="6.16095">
        <ele>468</ele>
        <time>2024-04-07T10:27:20.000Z</time>
      </trkpt>
      <trkpt lat="43.36106" lon="6.16087">
        <ele>474</ele>
        <time>2024-04-07T10:27:41.000Z</time>
      </trkpt>
      <trkpt lat="43.36113" lon="6.16066">
        <ele>476</ele>
        <time>2024-04-07T10:28:00.000Z</time>
      </trkpt>
      <trkpt lat="43.36121" lon="6.16046">
        <ele>477</ele>
        <time>2024-04-07T10:28:15.000Z</time>
      </trkpt>
      <trkpt lat="43.36129" lon="6.16027">
        <ele>479</ele>
        <time>2024-04-07T10:28:29.000Z</time>
      </trkpt>
      <trkpt lat="43.36134" lon="6.16002">
        <ele>481</ele>
        <time>2024-04-07T10:28:50.000Z</time>
      </trkpt>
      <trkpt lat="43.36139" lon="6.15984">
        <ele>484</ele>
        <time>2024-04-07T10:29:05.000Z</time>
      </trkpt>
      <trkpt lat="43.36145" lon="6.15967">
        <ele>484</ele>
        <time>2024-04-07T10:29:19.000Z</time>
      </trkpt>
      <trkpt lat="43.36152" lon="6.15945">
        <ele>484</ele>
        <time>2024-04-07T10:29:39.000Z</time>
      </trkpt>
      <trkpt lat="43.36162" lon="6.15931">
        <ele>484</ele>
        <time>2024-04-07T10:29:54.000Z</time>
      </trkpt>
      <trkpt lat="43.36177" lon="6.15918">
        <ele>485</ele>
        <time>2024-04-07T10:30:13.000Z</time>
      </trkpt>
      <trkpt lat="43.36191" lon="6.15905">
        <ele>485</ele>
        <time>2024-04-07T10:30:28.000Z</time>
      </trkpt>
      <trkpt lat="43.36207" lon="6.15891">
        <ele>485</ele>
        <time>2024-04-07T10:30:43.000Z</time>
      </trkpt>
      <trkpt lat="43.36218" lon="6.15874">
        <ele>489</ele>
        <time>2024-04-07T10:30:57.000Z</time>
      </trkpt>
      <trkpt lat="43.36227" lon="6.15854">
        <ele>490</ele>
        <time>2024-04-07T10:31:13.000Z</time>
      </trkpt>
      <trkpt lat="43.36239" lon="6.15842">
        <ele>490</ele>
        <time>2024-04-07T10:34:52.000Z</time>
      </trkpt>
      <trkpt lat="43.3625" lon="6.15816">
        <ele>491</ele>
        <time>2024-04-07T10:36:11.000Z</time>
      </trkpt>
      <trkpt lat="43.36254" lon="6.15795">
        <ele>490</ele>
        <time>2024-04-07T10:36:25.000Z</time>
      </trkpt>
      <trkpt lat="43.36249" lon="6.1577">
        <ele>490</ele>
        <time>2024-04-07T10:36:40.000Z</time>
      </trkpt>
      <trkpt lat="43.36249" lon="6.15746">
        <ele>490</ele>
        <time>2024-04-07T10:36:54.000Z</time>
      </trkpt>
      <trkpt lat="43.36244" lon="6.15722">
        <ele>490</ele>
        <time>2024-04-07T10:37:10.000Z</time>
      </trkpt>
      <trkpt lat="43.36251" lon="6.15698">
        <ele>488</ele>
        <time>2024-04-07T10:37:25.000Z</time>
      </trkpt>
      <trkpt lat="43.36266" lon="6.15683">
        <ele>488</ele>
        <time>2024-04-07T10:37:39.000Z</time>
      </trkpt>
      <trkpt lat="43.36281" lon="6.15667">
        <ele>491</ele>
        <time>2024-04-07T10:37:54.000Z</time>
      </trkpt>
      <trkpt lat="43.36285" lon="6.15649">
        <ele>491</ele>
        <time>2024-04-07T10:38:04.000Z</time>
      </trkpt>
      <trkpt lat="43.36288" lon="6.15627">
        <ele>490</ele>
        <time>2024-04-07T10:38:19.000Z</time>
      </trkpt>
      <trkpt lat="43.36289" lon="6.15601">
        <ele>490</ele>
        <time>2024-04-07T10:38:33.000Z</time>
      </trkpt>
      <trkpt lat="43.36283" lon="6.15579">
        <ele>488</ele>
        <time>2024-04-07T10:38:48.000Z</time>
      </trkpt>
      <trkpt lat="43.36284" lon="6.15551">
        <ele>486</ele>
        <time>2024-04-07T10:39:02.000Z</time>
      </trkpt>
      <trkpt lat="43.36288" lon="6.15529">
        <ele>486</ele>
        <time>2024-04-07T10:39:17.000Z</time>
      </trkpt>
      <trkpt lat="43.36296" lon="6.15514">
        <ele>485</ele>
        <time>2024-04-07T10:39:26.000Z</time>
      </trkpt>
      <trkpt lat="43.3631" lon="6.15506">
        <ele>485</ele>
        <time>2024-04-07T10:39:36.000Z</time>
      </trkpt>
      <trkpt lat="43.36324" lon="6.1549">
        <ele>484</ele>
        <time>2024-04-07T10:39:50.000Z</time>
      </trkpt>
      <trkpt lat="43.36338" lon="6.15475">
        <ele>486</ele>
        <time>2024-04-07T10:40:06.000Z</time>
      </trkpt>
      <trkpt lat="43.36352" lon="6.15475">
        <ele>485</ele>
        <time>2024-04-07T10:40:20.000Z</time>
      </trkpt>
      <trkpt lat="43.36365" lon="6.15467">
        <ele>487</ele>
        <time>2024-04-07T10:40:30.000Z</time>
      </trkpt>
      <trkpt lat="43.3638" lon="6.15465">
        <ele>487</ele>
        <time>2024-04-07T10:40:44.000Z</time>
      </trkpt>
      <trkpt lat="43.36389" lon="6.15445">
        <ele>487</ele>
        <time>2024-04-07T10:40:54.000Z</time>
      </trkpt>
      <trkpt lat="43.36399" lon="6.15433">
        <ele>489</ele>
        <time>2024-04-07T10:41:03.000Z</time>
      </trkpt>
      <trkpt lat="43.36404" lon="6.15414">
        <ele>489</ele>
        <time>2024-04-07T10:41:13.000Z</time>
      </trkpt>
      <trkpt lat="43.3641" lon="6.15392">
        <ele>489</ele>
        <time>2024-04-07T10:41:28.000Z</time>
      </trkpt>
      <trkpt lat="43.36425" lon="6.15397">
        <ele>452</ele>
        <time>2024-04-07T10:41:37.000Z</time>
      </trkpt>
      <trkpt lat="43.36432" lon="6.15382">
        <ele>465</ele>
        <time>2024-04-07T10:41:47.000Z</time>
      </trkpt>
      <trkpt lat="43.36448" lon="6.15369">
        <ele>476</ele>
        <time>2024-04-07T10:42:02.000Z</time>
      </trkpt>
      <trkpt lat="43.36462" lon="6.15356">
        <ele>479</ele>
        <time>2024-04-07T10:42:17.000Z</time>
      </trkpt>
      <trkpt lat="43.36478" lon="6.15346">
        <ele>481</ele>
        <time>2024-04-07T10:42:31.000Z</time>
      </trkpt>
      <trkpt lat="43.36492" lon="6.1536">
        <ele>482</ele>
        <time>2024-04-07T10:44:13.000Z</time>
      </trkpt>
      <trkpt lat="43.36499" lon="6.15381">
        <ele>482</ele>
        <time>2024-04-07T10:44:28.000Z</time>
      </trkpt>
      <trkpt lat="43.36503" lon="6.15404">
        <ele>483</ele>
        <time>2024-04-07T10:44:42.000Z</time>
      </trkpt>
      <trkpt lat="43.36507" lon="6.15428">
        <ele>481</ele>
        <time>2024-04-07T10:44:57.000Z</time>
      </trkpt>
      <trkpt lat="43.36507" lon="6.15454">
        <ele>481</ele>
        <time>2024-04-07T10:45:11.000Z</time>
      </trkpt>
      <trkpt lat="43.36509" lon="6.15481">
        <ele>483</ele>
        <time>2024-04-07T10:45:26.000Z</time>
      </trkpt>
      <trkpt lat="43.36508" lon="6.155">
        <ele>484</ele>
        <time>2024-04-07T10:45:36.000Z</time>
      </trkpt>
      <trkpt lat="43.36508" lon="6.15527">
        <ele>484</ele>
        <time>2024-04-07T10:45:50.000Z</time>
      </trkpt>
      <trkpt lat="43.3651" lon="6.15551">
        <ele>484</ele>
        <time>2024-04-07T10:46:04.000Z</time>
      </trkpt>
      <trkpt lat="43.36511" lon="6.1557">
        <ele>485</ele>
        <time>2024-04-07T10:46:14.000Z</time>
      </trkpt>
      <trkpt lat="43.36511" lon="6.15594">
        <ele>484</ele>
        <time>2024-04-07T10:46:28.000Z</time>
      </trkpt>
      <trkpt lat="43.36513" lon="6.1562">
        <ele>483</ele>
        <time>2024-04-07T10:46:42.000Z</time>
      </trkpt>
      <trkpt lat="43.36516" lon="6.15646">
        <ele>485</ele>
        <time>2024-04-07T10:46:56.000Z</time>
      </trkpt>
      <trkpt lat="43.3652" lon="6.15671">
        <ele>484</ele>
        <time>2024-04-07T10:47:11.000Z</time>
      </trkpt>
      <trkpt lat="43.36526" lon="6.15696">
        <ele>481</ele>
        <time>2024-04-07T10:47:25.000Z</time>
      </trkpt>
      <trkpt lat="43.36529" lon="6.15721">
        <ele>478</ele>
        <time>2024-04-07T10:47:39.000Z</time>
      </trkpt>
      <trkpt lat="43.36532" lon="6.15746">
        <ele>478</ele>
        <time>2024-04-07T10:47:53.000Z</time>
      </trkpt>
      <trkpt lat="43.36539" lon="6.1577">
        <ele>478</ele>
        <time>2024-04-07T10:48:07.000Z</time>
      </trkpt>
      <trkpt lat="43.36552" lon="6.15787">
        <ele>476</ele>
        <time>2024-04-07T10:48:22.000Z</time>
      </trkpt>
      <trkpt lat="43.3657" lon="6.15784">
        <ele>476</ele>
        <time>2024-04-07T10:48:36.000Z</time>
      </trkpt>
      <trkpt lat="43.36588" lon="6.15779">
        <ele>477</ele>
        <time>2024-04-07T10:48:50.000Z</time>
      </trkpt>
      <trkpt lat="43.36608" lon="6.15779">
        <ele>476</ele>
        <time>2024-04-07T10:49:05.000Z</time>
      </trkpt>
      <trkpt lat="43.36623" lon="6.15792">
        <ele>476</ele>
        <time>2024-04-07T10:49:19.000Z</time>
      </trkpt>
      <trkpt lat="43.36641" lon="6.15805">
        <ele>475</ele>
        <time>2024-04-07T10:49:34.000Z</time>
      </trkpt>
      <trkpt lat="43.36655" lon="6.1582">
        <ele>475</ele>
        <time>2024-04-07T10:49:48.000Z</time>
      </trkpt>
      <trkpt lat="43.36668" lon="6.1584">
        <ele>474</ele>
        <time>2024-04-07T10:50:02.000Z</time>
      </trkpt>
      <trkpt lat="43.36674" lon="6.15865">
        <ele>475</ele>
        <time>2024-04-07T10:50:17.000Z</time>
      </trkpt>
      <trkpt lat="43.36682" lon="6.15883">
        <ele>456</ele>
        <time>2024-04-07T10:50:31.000Z</time>
      </trkpt>
      <trkpt lat="43.36698" lon="6.15886">
        <ele>460</ele>
        <time>2024-04-07T10:50:45.000Z</time>
      </trkpt>
      <trkpt lat="43.36711" lon="6.15871">
        <ele>463</ele>
        <time>2024-04-07T10:50:55.000Z</time>
      </trkpt>
      <trkpt lat="43.36724" lon="6.15851">
        <ele>465</ele>
        <time>2024-04-07T10:51:09.000Z</time>
      </trkpt>
      <trkpt lat="43.36737" lon="6.15834">
        <ele>465</ele>
        <time>2024-04-07T10:51:23.000Z</time>
      </trkpt>
      <trkpt lat="43.36749" lon="6.15815">
        <ele>466</ele>
        <time>2024-04-07T10:51:37.000Z</time>
      </trkpt>
      <trkpt lat="43.3676" lon="6.15794">
        <ele>466</ele>
        <time>2024-04-07T10:51:51.000Z</time>
      </trkpt>
      <trkpt lat="43.36776" lon="6.15782">
        <ele>466</ele>
        <time>2024-04-07T10:52:05.000Z</time>
      </trkpt>
      <trkpt lat="43.36786" lon="6.15801">
        <ele>467</ele>
        <time>2024-04-07T10:52:20.000Z</time>
      </trkpt>
      <trkpt lat="43.36794" lon="6.15823">
        <ele>467</ele>
        <time>2024-04-07T10:52:34.000Z</time>
      </trkpt>
      <trkpt lat="43.36799" lon="6.15848">
        <ele>469</ele>
        <time>2024-04-07T10:52:48.000Z</time>
      </trkpt>
      <trkpt lat="43.36803" lon="6.15872">
        <ele>470</ele>
        <time>2024-04-07T10:53:02.000Z</time>
      </trkpt>
      <trkpt lat="43.36803" lon="6.15896">
        <ele>470</ele>
        <time>2024-04-07T10:53:16.000Z</time>
      </trkpt>
      <trkpt lat="43.36808" lon="6.15923">
        <ele>469</ele>
        <time>2024-04-07T10:53:30.000Z</time>
      </trkpt>
      <trkpt lat="43.3681" lon="6.15948">
        <ele>469</ele>
        <time>2024-04-07T10:53:44.000Z</time>
      </trkpt>
      <trkpt lat="43.36808" lon="6.15974">
        <ele>469</ele>
        <time>2024-04-07T10:53:59.000Z</time>
      </trkpt>
      <trkpt lat="43.36813" lon="6.15999">
        <ele>469</ele>
        <time>2024-04-07T10:54:13.000Z</time>
      </trkpt>
      <trkpt lat="43.36816" lon="6.16026">
        <ele>470</ele>
        <time>2024-04-07T10:54:27.000Z</time>
      </trkpt>
      <trkpt lat="43.36815" lon="6.16049">
        <ele>469</ele>
        <time>2024-04-07T10:54:42.000Z</time>
      </trkpt>
      <trkpt lat="43.36815" lon="6.16069">
        <ele>469</ele>
        <time>2024-04-07T10:54:52.000Z</time>
      </trkpt>
      <trkpt lat="43.36814" lon="6.16095">
        <ele>469</ele>
        <time>2024-04-07T10:55:06.000Z</time>
      </trkpt>
      <trkpt lat="43.36812" lon="6.16122">
        <ele>470</ele>
        <time>2024-04-07T10:55:21.000Z</time>
      </trkpt>
      <trkpt lat="43.36817" lon="6.16148">
        <ele>469</ele>
        <time>2024-04-07T10:55:35.000Z</time>
      </trkpt>
      <trkpt lat="43.36822" lon="6.16169">
        <ele>459</ele>
        <time>2024-04-07T10:55:49.000Z</time>
      </trkpt>
      <trkpt lat="43.36833" lon="6.16184">
        <ele>460</ele>
        <time>2024-04-07T10:56:04.000Z</time>
      </trkpt>
      <trkpt lat="43.36838" lon="6.16204">
        <ele>466</ele>
        <time>2024-04-07T11:05:13.000Z</time>
      </trkpt>
      <trkpt lat="43.36851" lon="6.1622">
        <ele>466</ele>
        <time>2024-04-07T11:05:27.000Z</time>
      </trkpt>
      <trkpt lat="43.36853" lon="6.16246">
        <ele>465</ele>
        <time>2024-04-07T11:05:41.000Z</time>
      </trkpt>
      <trkpt lat="43.36853" lon="6.16268">
        <ele>461</ele>
        <time>2024-04-07T11:05:56.000Z</time>
      </trkpt>
      <trkpt lat="43.3685" lon="6.16289">
        <ele>461</ele>
        <time>2024-04-07T11:06:06.000Z</time>
      </trkpt>
      <trkpt lat="43.36852" lon="6.16315">
        <ele>463</ele>
        <time>2024-04-07T11:06:21.000Z</time>
      </trkpt>
      <trkpt lat="43.36847" lon="6.16333">
        <ele>463</ele>
        <time>2024-04-07T11:06:30.000Z</time>
      </trkpt>
      <trkpt lat="43.36846" lon="6.16359">
        <ele>463</ele>
        <time>2024-04-07T11:06:45.000Z</time>
      </trkpt>
      <trkpt lat="43.36843" lon="6.16383">
        <ele>463</ele>
        <time>2024-04-07T11:06:59.000Z</time>
      </trkpt>
      <trkpt lat="43.36836" lon="6.164">
        <ele>462</ele>
        <time>2024-04-07T11:07:10.000Z</time>
      </trkpt>
      <trkpt lat="43.36826" lon="6.16421">
        <ele>463</ele>
        <time>2024-04-07T11:07:24.000Z</time>
      </trkpt>
      <trkpt lat="43.36826" lon="6.1644">
        <ele>461</ele>
        <time>2024-04-07T11:07:33.000Z</time>
      </trkpt>
      <trkpt lat="43.36824" lon="6.16459">
        <ele>461</ele>
        <time>2024-04-07T11:07:43.000Z</time>
      </trkpt>
      <trkpt lat="43.36829" lon="6.16488">
        <ele>460</ele>
        <time>2024-04-07T11:07:58.000Z</time>
      </trkpt>
      <trkpt lat="43.36842" lon="6.16505">
        <ele>459</ele>
        <time>2024-04-07T11:08:12.000Z</time>
      </trkpt>
      <trkpt lat="43.36861" lon="6.1651">
        <ele>460</ele>
        <time>2024-04-07T11:08:26.000Z</time>
      </trkpt>
      <trkpt lat="43.36876" lon="6.1652">
        <ele>458</ele>
        <time>2024-04-07T11:08:40.000Z</time>
      </trkpt>
      <trkpt lat="43.3689" lon="6.16537">
        <ele>460</ele>
        <time>2024-04-07T11:08:55.000Z</time>
      </trkpt>
      <trkpt lat="43.36893" lon="6.16562">
        <ele>460</ele>
        <time>2024-04-07T11:09:09.000Z</time>
      </trkpt>
      <trkpt lat="43.36889" lon="6.16582">
        <ele>457</ele>
        <time>2024-04-07T11:09:19.000Z</time>
      </trkpt>
      <trkpt lat="43.36885" lon="6.16609">
        <ele>457</ele>
        <time>2024-04-07T11:09:34.000Z</time>
      </trkpt>
      <trkpt lat="43.36886" lon="6.16628">
        <ele>457</ele>
        <time>2024-04-07T11:09:44.000Z</time>
      </trkpt>
      <trkpt lat="43.36887" lon="6.16654">
        <ele>457</ele>
        <time>2024-04-07T11:09:59.000Z</time>
      </trkpt>
      <trkpt lat="43.36887" lon="6.16679">
        <ele>456</ele>
        <time>2024-04-07T11:10:13.000Z</time>
      </trkpt>
      <trkpt lat="43.36888" lon="6.16703">
        <ele>456</ele>
        <time>2024-04-07T11:10:27.000Z</time>
      </trkpt>
      <trkpt lat="43.36889" lon="6.16728">
        <ele>458</ele>
        <time>2024-04-07T11:10:41.000Z</time>
      </trkpt>
      <trkpt lat="43.36876" lon="6.1675">
        <ele>458</ele>
        <time>2024-04-07T11:10:55.000Z</time>
      </trkpt>
      <trkpt lat="43.36865" lon="6.16774">
        <ele>456</ele>
        <time>2024-04-07T11:11:09.000Z</time>
      </trkpt>
      <trkpt lat="43.36857" lon="6.16792">
        <ele>454</ele>
        <time>2024-04-07T11:11:24.000Z</time>
      </trkpt>
      <trkpt lat="43.36847" lon="6.16816">
        <ele>456</ele>
        <time>2024-04-07T11:11:37.000Z</time>
      </trkpt>
      <trkpt lat="43.36838" lon="6.1684">
        <ele>454</ele>
        <time>2024-04-07T11:11:52.000Z</time>
      </trkpt>
      <trkpt lat="43.36832" lon="6.16866">
        <ele>454</ele>
        <time>2024-04-07T11:12:07.000Z</time>
      </trkpt>
      <trkpt lat="43.36826" lon="6.16883">
        <ele>455</ele>
        <time>2024-04-07T11:12:17.000Z</time>
      </trkpt>
      <trkpt lat="43.36824" lon="6.16908">
        <ele>456</ele>
        <time>2024-04-07T11:12:31.000Z</time>
      </trkpt>
      <trkpt lat="43.36818" lon="6.16933">
        <ele>456</ele>
        <time>2024-04-07T11:12:45.000Z</time>
      </trkpt>
      <trkpt lat="43.3681" lon="6.16956">
        <ele>455</ele>
        <time>2024-04-07T11:12:59.000Z</time>
      </trkpt>
      <trkpt lat="43.36808" lon="6.16975">
        <ele>456</ele>
        <time>2024-04-07T11:13:09.000Z</time>
      </trkpt>
      <trkpt lat="43.36806" lon="6.16994">
        <ele>456</ele>
        <time>2024-04-07T11:13:19.000Z</time>
      </trkpt>
      <trkpt lat="43.36806" lon="6.17014">
        <ele>457</ele>
        <time>2024-04-07T11:13:28.000Z</time>
      </trkpt>
      <trkpt lat="43.36807" lon="6.17037">
        <ele>457</ele>
        <time>2024-04-07T11:13:43.000Z</time>
      </trkpt>
      <trkpt lat="43.36803" lon="6.17058">
        <ele>456</ele>
        <time>2024-04-07T11:13:53.000Z</time>
      </trkpt>
      <trkpt lat="43.36804" lon="6.17084">
        <ele>457</ele>
        <time>2024-04-07T11:14:07.000Z</time>
      </trkpt>
      <trkpt lat="43.36809" lon="6.17102">
        <ele>457</ele>
        <time>2024-04-07T11:14:17.000Z</time>
      </trkpt>
      <trkpt lat="43.36811" lon="6.17128">
        <ele>456</ele>
        <time>2024-04-07T11:14:31.000Z</time>
      </trkpt>
      <trkpt lat="43.3682" lon="6.17149">
        <ele>456</ele>
        <time>2024-04-07T11:14:46.000Z</time>
      </trkpt>
      <trkpt lat="43.3683" lon="6.17171">
        <ele>456</ele>
        <time>2024-04-07T11:15:00.000Z</time>
      </trkpt>
      <trkpt lat="43.36839" lon="6.17193">
        <ele>458</ele>
        <time>2024-04-07T11:15:16.000Z</time>
      </trkpt>
      <trkpt lat="43.36835" lon="6.17216">
        <ele>457</ele>
        <time>2024-04-07T11:15:30.000Z</time>
      </trkpt>
      <trkpt lat="43.36827" lon="6.17241">
        <ele>456</ele>
        <time>2024-04-07T11:15:45.000Z</time>
      </trkpt>
      <trkpt lat="43.36818" lon="6.1726">
        <ele>457</ele>
        <time>2024-04-07T11:15:55.000Z</time>
      </trkpt>
      <trkpt lat="43.36809" lon="6.17283">
        <ele>456</ele>
        <time>2024-04-07T11:16:10.000Z</time>
      </trkpt>
      <trkpt lat="43.368" lon="6.17297">
        <ele>455</ele>
        <time>2024-04-07T11:16:19.000Z</time>
      </trkpt>
      <trkpt lat="43.36791" lon="6.17312">
        <ele>455</ele>
        <time>2024-04-07T11:16:29.000Z</time>
      </trkpt>
      <trkpt lat="43.36779" lon="6.17331">
        <ele>454</ele>
        <time>2024-04-07T11:16:43.000Z</time>
      </trkpt>
      <trkpt lat="43.36766" lon="6.17353">
        <ele>455</ele>
        <time>2024-04-07T11:16:58.000Z</time>
      </trkpt>
      <trkpt lat="43.36756" lon="6.17375">
        <ele>454</ele>
        <time>2024-04-07T11:17:12.000Z</time>
      </trkpt>
      <trkpt lat="43.36748" lon="6.17399">
        <ele>453</ele>
        <time>2024-04-07T11:17:26.000Z</time>
      </trkpt>
      <trkpt lat="43.36747" lon="6.17425">
        <ele>452</ele>
        <time>2024-04-07T11:17:41.000Z</time>
      </trkpt>
      <trkpt lat="43.36753" lon="6.17448">
        <ele>452</ele>
        <time>2024-04-07T11:17:55.000Z</time>
      </trkpt>
      <trkpt lat="43.36751" lon="6.17467">
        <ele>452</ele>
        <time>2024-04-07T11:18:05.000Z</time>
      </trkpt>
      <trkpt lat="43.36747" lon="6.17491">
        <ele>453</ele>
        <time>2024-04-07T11:18:19.000Z</time>
      </trkpt>
      <trkpt lat="43.36742" lon="6.17516">
        <ele>454</ele>
        <time>2024-04-07T11:18:33.000Z</time>
      </trkpt>
      <trkpt lat="43.36735" lon="6.17539">
        <ele>455</ele>
        <time>2024-04-07T11:18:47.000Z</time>
      </trkpt>
      <trkpt lat="43.36724" lon="6.1756">
        <ele>454</ele>
        <time>2024-04-07T11:19:01.000Z</time>
      </trkpt>
      <trkpt lat="43.36722" lon="6.17578">
        <ele>453</ele>
        <time>2024-04-07T11:19:11.000Z</time>
      </trkpt>
      <trkpt lat="43.36731" lon="6.17593">
        <ele>452</ele>
        <time>2024-04-07T11:19:21.000Z</time>
      </trkpt>
      <trkpt lat="43.36727" lon="6.17618">
        <ele>452</ele>
        <time>2024-04-07T11:19:35.000Z</time>
      </trkpt>
      <trkpt lat="43.36718" lon="6.17642">
        <ele>453</ele>
        <time>2024-04-07T11:19:51.000Z</time>
      </trkpt>
      <trkpt lat="43.36705" lon="6.1766">
        <ele>454</ele>
        <time>2024-04-07T11:20:06.000Z</time>
      </trkpt>
      <trkpt lat="43.36701" lon="6.17678">
        <ele>453</ele>
        <time>2024-04-07T11:20:16.000Z</time>
      </trkpt>
      <trkpt lat="43.36682" lon="6.17684">
        <ele>453</ele>
        <time>2024-04-07T11:20:30.000Z</time>
      </trkpt>
      <trkpt lat="43.36666" lon="6.17689">
        <ele>452</ele>
        <time>2024-04-07T11:20:45.000Z</time>
      </trkpt>
      <trkpt lat="43.36647" lon="6.17699">
        <ele>452</ele>
        <time>2024-04-07T11:20:59.000Z</time>
      </trkpt>
      <trkpt lat="43.36628" lon="6.17706">
        <ele>453</ele>
        <time>2024-04-07T11:21:13.000Z</time>
      </trkpt>
      <trkpt lat="43.36612" lon="6.17719">
        <ele>451</ele>
        <time>2024-04-07T11:21:28.000Z</time>
      </trkpt>
      <trkpt lat="43.36607" lon="6.17739">
        <ele>451</ele>
        <time>2024-04-07T11:21:38.000Z</time>
      </trkpt>
      <trkpt lat="43.36602" lon="6.17756">
        <ele>450</ele>
        <time>2024-04-07T11:21:48.000Z</time>
      </trkpt>
      <trkpt lat="43.36596" lon="6.17781">
        <ele>451</ele>
        <time>2024-04-07T11:22:03.000Z</time>
      </trkpt>
      <trkpt lat="43.36584" lon="6.17799">
        <ele>450</ele>
        <time>2024-04-07T11:22:18.000Z</time>
      </trkpt>
      <trkpt lat="43.36575" lon="6.17813">
        <ele>450</ele>
        <time>2024-04-07T11:22:28.000Z</time>
      </trkpt>
      <trkpt lat="43.36557" lon="6.17824">
        <ele>449</ele>
        <time>2024-04-07T11:22:42.000Z</time>
      </trkpt>
      <trkpt lat="43.36544" lon="6.17838">
        <ele>449</ele>
        <time>2024-04-07T11:22:57.000Z</time>
      </trkpt>
      <trkpt lat="43.36534" lon="6.17859">
        <ele>449</ele>
        <time>2024-04-07T11:23:11.000Z</time>
      </trkpt>
      <trkpt lat="43.36522" lon="6.17877">
        <ele>450</ele>
        <time>2024-04-07T11:23:26.000Z</time>
      </trkpt>
      <trkpt lat="43.36524" lon="6.17903">
        <ele>450</ele>
        <time>2024-04-07T11:23:40.000Z</time>
      </trkpt>
      <trkpt lat="43.36525" lon="6.17925">
        <ele>449</ele>
        <time>2024-04-07T11:23:54.000Z</time>
      </trkpt>
      <trkpt lat="43.36519" lon="6.17945">
        <ele>448</ele>
        <time>2024-04-07T11:24:09.000Z</time>
      </trkpt>
      <trkpt lat="43.36504" lon="6.17959">
        <ele>448</ele>
        <time>2024-04-07T11:24:23.000Z</time>
      </trkpt>
      <trkpt lat="43.36488" lon="6.17976">
        <ele>415</ele>
        <time>2024-04-07T11:24:38.000Z</time>
      </trkpt>
      <trkpt lat="43.36496" lon="6.1796">
        <ele>435</ele>
        <time>2024-04-07T11:25:03.000Z</time>
      </trkpt>
      <trkpt lat="43.36513" lon="6.17951">
        <ele>438</ele>
        <time>2024-04-07T11:25:17.000Z</time>
      </trkpt>
      <trkpt lat="43.36526" lon="6.17937">
        <ele>439</ele>
        <time>2024-04-07T11:25:32.000Z</time>
      </trkpt>
      <trkpt lat="43.36524" lon="6.17912">
        <ele>440</ele>
        <time>2024-04-07T11:25:46.000Z</time>
      </trkpt>
      <trkpt lat="43.3653" lon="6.17893">
        <ele>442</ele>
        <time>2024-04-07T11:26:00.000Z</time>
      </trkpt>
      <trkpt lat="43.36542" lon="6.1788">
        <ele>442</ele>
        <time>2024-04-07T11:26:20.000Z</time>
      </trkpt>
      <trkpt lat="43.36555" lon="6.17861">
        <ele>449</ele>
        <time>2024-04-07T11:26:55.000Z</time>
      </trkpt>
      <trkpt lat="43.36551" lon="6.17882">
        <ele>455</ele>
        <time>2024-04-07T11:27:24.000Z</time>
      </trkpt>
      <trkpt lat="43.36551" lon="6.17901">
        <ele>457</ele>
        <time>2024-04-07T11:27:38.000Z</time>
      </trkpt>
      <trkpt lat="43.36557" lon="6.1792">
        <ele>460</ele>
        <time>2024-04-07T11:27:52.000Z</time>
      </trkpt>
      <trkpt lat="43.36567" lon="6.17938">
        <ele>465</ele>
        <time>2024-04-07T11:28:07.000Z</time>
      </trkpt>
      <trkpt lat="43.36565" lon="6.17957">
        <ele>466</ele>
        <time>2024-04-07T11:28:21.000Z</time>
      </trkpt>
      <trkpt lat="43.36553" lon="6.1797">
        <ele>468</ele>
        <time>2024-04-07T11:28:36.000Z</time>
      </trkpt>
      <trkpt lat="43.36549" lon="6.17995">
        <ele>471</ele>
        <time>2024-04-07T11:28:50.000Z</time>
      </trkpt>
      <trkpt lat="43.36551" lon="6.1802">
        <ele>471</ele>
        <time>2024-04-07T11:29:05.000Z</time>
      </trkpt>
      <trkpt lat="43.36557" lon="6.18039">
        <ele>475</ele>
        <time>2024-04-07T11:29:19.000Z</time>
      </trkpt>
      <trkpt lat="43.36566" lon="6.1806">
        <ele>476</ele>
        <time>2024-04-07T11:29:37.000Z</time>
      </trkpt>
      <trkpt lat="43.36574" lon="6.1808">
        <ele>479</ele>
        <time>2024-04-07T11:29:52.000Z</time>
      </trkpt>
      <trkpt lat="43.36582" lon="6.18097">
        <ele>480</ele>
        <time>2024-04-07T11:30:06.000Z</time>
      </trkpt>
      <trkpt lat="43.3659" lon="6.18117">
        <ele>484</ele>
        <time>2024-04-07T11:30:25.000Z</time>
      </trkpt>
      <trkpt lat="43.36596" lon="6.18133">
        <ele>486</ele>
        <time>2024-04-07T11:30:39.000Z</time>
      </trkpt>
      <trkpt lat="43.36603" lon="6.1815">
        <ele>488</ele>
        <time>2024-04-07T11:30:54.000Z</time>
      </trkpt>
      <trkpt lat="43.3661" lon="6.1817">
        <ele>490</ele>
        <time>2024-04-07T11:31:08.000Z</time>
      </trkpt>
      <trkpt lat="43.36619" lon="6.18189">
        <ele>491</ele>
        <time>2024-04-07T11:31:22.000Z</time>
      </trkpt>
      <trkpt lat="43.36627" lon="6.18205">
        <ele>495</ele>
        <time>2024-04-07T11:31:37.000Z</time>
      </trkpt>
      <trkpt lat="43.36638" lon="6.1822">
        <ele>497</ele>
        <time>2024-04-07T11:31:51.000Z</time>
      </trkpt>
      <trkpt lat="43.36652" lon="6.18221">
        <ele>499</ele>
        <time>2024-04-07T11:32:06.000Z</time>
      </trkpt>
      <trkpt lat="43.36661" lon="6.18205">
        <ele>500</ele>
        <time>2024-04-07T11:32:22.000Z</time>
      </trkpt>
      <trkpt lat="43.36667" lon="6.18184">
        <ele>502</ele>
        <time>2024-04-07T11:32:42.000Z</time>
      </trkpt>
      <trkpt lat="43.36677" lon="6.18167">
        <ele>505</ele>
        <time>2024-04-07T11:33:01.000Z</time>
      </trkpt>
      <trkpt lat="43.36678" lon="6.18147">
        <ele>507</ele>
        <time>2024-04-07T11:33:15.000Z</time>
      </trkpt>
      <trkpt lat="43.36682" lon="6.18122">
        <ele>509</ele>
        <time>2024-04-07T11:33:30.000Z</time>
      </trkpt>
      <trkpt lat="43.36686" lon="6.18101">
        <ele>508</ele>
        <time>2024-04-07T11:33:44.000Z</time>
      </trkpt>
      <trkpt lat="43.36686" lon="6.18074">
        <ele>511</ele>
        <time>2024-04-07T11:33:59.000Z</time>
      </trkpt>
      <trkpt lat="43.3669" lon="6.18049">
        <ele>510</ele>
        <time>2024-04-07T11:34:14.000Z</time>
      </trkpt>
      <trkpt lat="43.36692" lon="6.18023">
        <ele>511</ele>
        <time>2024-04-07T11:34:29.000Z</time>
      </trkpt>
      <trkpt lat="43.36696" lon="6.18005">
        <ele>511</ele>
        <time>2024-04-07T11:34:39.000Z</time>
      </trkpt>
      <trkpt lat="43.36689" lon="6.17983">
        <ele>512</ele>
        <time>2024-04-07T11:34:54.000Z</time>
      </trkpt>
      <trkpt lat="43.36695" lon="6.17962">
        <ele>511</ele>
        <time>2024-04-07T11:35:03.000Z</time>
      </trkpt>
      <trkpt lat="43.36707" lon="6.17941">
        <ele>511</ele>
        <time>2024-04-07T11:35:17.000Z</time>
      </trkpt>
      <trkpt lat="43.36707" lon="6.17913">
        <ele>511</ele>
        <time>2024-04-07T11:35:32.000Z</time>
      </trkpt>
      <trkpt lat="43.36715" lon="6.1789">
        <ele>510</ele>
        <time>2024-04-07T11:35:46.000Z</time>
      </trkpt>
      <trkpt lat="43.36722" lon="6.17868">
        <ele>510</ele>
        <time>2024-04-07T11:36:01.000Z</time>
      </trkpt>
      <trkpt lat="43.36725" lon="6.17848">
        <ele>507</ele>
        <time>2024-04-07T11:41:02.000Z</time>
      </trkpt>
      <trkpt lat="43.36737" lon="6.17836">
        <ele>506</ele>
        <time>2024-04-07T11:41:11.000Z</time>
      </trkpt>
      <trkpt lat="43.36751" lon="6.17822">
        <ele>507</ele>
        <time>2024-04-07T11:41:26.000Z</time>
      </trkpt>
      <trkpt lat="43.36759" lon="6.17804">
        <ele>505</ele>
        <time>2024-04-07T11:41:41.000Z</time>
      </trkpt>
      <trkpt lat="43.36769" lon="6.17785">
        <ele>504</ele>
        <time>2024-04-07T11:41:56.000Z</time>
      </trkpt>
      <trkpt lat="43.36779" lon="6.17768">
        <ele>503</ele>
        <time>2024-04-07T11:42:11.000Z</time>
      </trkpt>
      <trkpt lat="43.36792" lon="6.17752">
        <ele>501</ele>
        <time>2024-04-07T11:42:25.000Z</time>
      </trkpt>
      <trkpt lat="43.36799" lon="6.17729">
        <ele>501</ele>
        <time>2024-04-07T11:42:39.000Z</time>
      </trkpt>
      <trkpt lat="43.36809" lon="6.17707">
        <ele>499</ele>
        <time>2024-04-07T11:42:54.000Z</time>
      </trkpt>
      <trkpt lat="43.36823" lon="6.17685">
        <ele>498</ele>
        <time>2024-04-07T11:43:10.000Z</time>
      </trkpt>
      <trkpt lat="43.36831" lon="6.17661">
        <ele>496</ele>
        <time>2024-04-07T11:43:24.000Z</time>
      </trkpt>
      <trkpt lat="43.36846" lon="6.17646">
        <ele>498</ele>
        <time>2024-04-07T11:43:39.000Z</time>
      </trkpt>
      <trkpt lat="43.36857" lon="6.17628">
        <ele>499</ele>
        <time>2024-04-07T11:43:53.000Z</time>
      </trkpt>
      <trkpt lat="43.36866" lon="6.1761">
        <ele>500</ele>
        <time>2024-04-07T11:44:08.000Z</time>
      </trkpt>
      <trkpt lat="43.36881" lon="6.17597">
        <ele>501</ele>
        <time>2024-04-07T11:44:23.000Z</time>
      </trkpt>
      <trkpt lat="43.36891" lon="6.17583">
        <ele>502</ele>
        <time>2024-04-07T11:44:38.000Z</time>
      </trkpt>
      <trkpt lat="43.36902" lon="6.17566">
        <ele>503</ele>
        <time>2024-04-07T11:44:52.000Z</time>
      </trkpt>
      <trkpt lat="43.36912" lon="6.17545">
        <ele>503</ele>
        <time>2024-04-07T11:45:07.000Z</time>
      </trkpt>
      <trkpt lat="43.36921" lon="6.17529">
        <ele>484</ele>
        <time>2024-04-07T11:45:21.000Z</time>
      </trkpt>
      <trkpt lat="43.36929" lon="6.17506">
        <ele>489</ele>
        <time>2024-04-07T11:45:35.000Z</time>
      </trkpt>
      <trkpt lat="43.36941" lon="6.17489">
        <ele>494</ele>
        <time>2024-04-07T11:45:50.000Z</time>
      </trkpt>
      <trkpt lat="43.36954" lon="6.1747">
        <ele>499</ele>
        <time>2024-04-07T11:46:04.000Z</time>
      </trkpt>
      <trkpt lat="43.36971" lon="6.17462">
        <ele>502</ele>
        <time>2024-04-07T11:46:19.000Z</time>
      </trkpt>
      <trkpt lat="43.36988" lon="6.17462">
        <ele>503</ele>
        <time>2024-04-07T11:46:33.000Z</time>
      </trkpt>
      <trkpt lat="43.37003" lon="6.17465">
        <ele>508</ele>
        <time>2024-04-07T11:46:48.000Z</time>
      </trkpt>
      <trkpt lat="43.37022" lon="6.17475">
        <ele>510</ele>
        <time>2024-04-07T11:47:02.000Z</time>
      </trkpt>
      <trkpt lat="43.37034" lon="6.17486">
        <ele>511</ele>
        <time>2024-04-07T11:47:13.000Z</time>
      </trkpt>
      <trkpt lat="43.37047" lon="6.17494">
        <ele>499</ele>
        <time>2024-04-07T11:47:23.000Z</time>
      </trkpt>
      <trkpt lat="43.37057" lon="6.17508">
        <ele>508</ele>
        <time>2024-04-07T11:47:33.000Z</time>
      </trkpt>
      <trkpt lat="43.37067" lon="6.1752">
        <ele>512</ele>
        <time>2024-04-07T11:47:43.000Z</time>
      </trkpt>
      <trkpt lat="43.37081" lon="6.1752">
        <ele>514</ele>
        <time>2024-04-07T11:47:53.000Z</time>
      </trkpt>
      <trkpt lat="43.37095" lon="6.17537">
        <ele>515</ele>
        <time>2024-04-07T11:48:08.000Z</time>
      </trkpt>
      <trkpt lat="43.37093" lon="6.17555">
        <ele>514</ele>
        <time>2024-04-07T11:49:33.000Z</time>
      </trkpt>
      <trkpt lat="43.37096" lon="6.17574">
        <ele>516</ele>
        <time>2024-04-07T11:49:43.000Z</time>
      </trkpt>
      <trkpt lat="43.37103" lon="6.17592">
        <ele>517</ele>
        <time>2024-04-07T11:49:58.000Z</time>
      </trkpt>
      <trkpt lat="43.37113" lon="6.17607">
        <ele>518</ele>
        <time>2024-04-07T11:50:11.000Z</time>
      </trkpt>
      <trkpt lat="43.37118" lon="6.17625">
        <ele>519</ele>
        <time>2024-04-07T11:50:26.000Z</time>
      </trkpt>
      <trkpt lat="43.37126" lon="6.17645">
        <ele>522</ele>
        <time>2024-04-07T11:50:45.000Z</time>
      </trkpt>
      <trkpt lat="43.37131" lon="6.17665">
        <ele>524</ele>
        <time>2024-04-07T11:51:04.000Z</time>
      </trkpt>
      <trkpt lat="43.37141" lon="6.1768">
        <ele>528</ele>
        <time>2024-04-07T11:51:23.000Z</time>
      </trkpt>
      <trkpt lat="43.37152" lon="6.17695">
        <ele>531</ele>
        <time>2024-04-07T11:51:44.000Z</time>
      </trkpt>
      <trkpt lat="43.37168" lon="6.17697">
        <ele>533</ele>
        <time>2024-04-07T11:51:59.000Z</time>
      </trkpt>
      <trkpt lat="43.37182" lon="6.17709">
        <ele>535</ele>
        <time>2024-04-07T11:52:23.000Z</time>
      </trkpt>
      <trkpt lat="43.372" lon="6.17707">
        <ele>542</ele>
        <time>2024-04-07T11:52:39.000Z</time>
      </trkpt>
      <trkpt lat="43.37213" lon="6.17716">
        <ele>546</ele>
        <time>2024-04-07T11:52:55.000Z</time>
      </trkpt>
      <trkpt lat="43.37228" lon="6.17733">
        <ele>547</ele>
        <time>2024-04-07T11:53:15.000Z</time>
      </trkpt>
      <trkpt lat="43.37235" lon="6.17751">
        <ele>550</ele>
        <time>2024-04-07T11:53:30.000Z</time>
      </trkpt>
      <trkpt lat="43.37239" lon="6.17777">
        <ele>556</ele>
        <time>2024-04-07T11:53:50.000Z</time>
      </trkpt>
      <trkpt lat="43.37227" lon="6.17791">
        <ele>557</ele>
        <time>2024-04-07T11:54:00.000Z</time>
      </trkpt>
      <trkpt lat="43.37218" lon="6.17805">
        <ele>559</ele>
        <time>2024-04-07T11:54:14.000Z</time>
      </trkpt>
      <trkpt lat="43.37205" lon="6.17819">
        <ele>562</ele>
        <time>2024-04-07T11:54:34.000Z</time>
      </trkpt>
      <trkpt lat="43.37191" lon="6.17824">
        <ele>563</ele>
        <time>2024-04-07T11:54:53.000Z</time>
      </trkpt>
      <trkpt lat="43.37189" lon="6.17804">
        <ele>566</ele>
        <time>2024-04-07T11:55:35.000Z</time>
      </trkpt>
      <trkpt lat="43.37185" lon="6.17826">
        <ele>571</ele>
        <time>2024-04-07T11:55:56.000Z</time>
      </trkpt>
      <trkpt lat="43.37194" lon="6.17811">
        <ele>570</ele>
        <time>2024-04-07T12:47:30.000Z</time>
      </trkpt>
      <trkpt lat="43.37201" lon="6.17837">
        <ele>566</ele>
        <time>2024-04-07T12:48:00.000Z</time>
      </trkpt>
      <trkpt lat="43.37195" lon="6.17855">
        <ele>567</ele>
        <time>2024-04-07T12:49:25.000Z</time>
      </trkpt>
      <trkpt lat="43.37185" lon="6.17873">
        <ele>565</ele>
        <time>2024-04-07T12:49:45.000Z</time>
      </trkpt>
      <trkpt lat="43.3718" lon="6.17891">
        <ele>563</ele>
        <time>2024-04-07T12:49:59.000Z</time>
      </trkpt>
      <trkpt lat="43.37166" lon="6.17903">
        <ele>559</ele>
        <time>2024-04-07T12:50:13.000Z</time>
      </trkpt>
      <trkpt lat="43.37163" lon="6.17924">
        <ele>553</ele>
        <time>2024-04-07T12:50:39.000Z</time>
      </trkpt>
      <trkpt lat="43.37155" lon="6.17947">
        <ele>550</ele>
        <time>2024-04-07T12:50:58.000Z</time>
      </trkpt>
      <trkpt lat="43.37164" lon="6.17961">
        <ele>548</ele>
        <time>2024-04-07T12:51:17.000Z</time>
      </trkpt>
      <trkpt lat="43.37168" lon="6.17982">
        <ele>549</ele>
        <time>2024-04-07T12:51:42.000Z</time>
      </trkpt>
      <trkpt lat="43.37159" lon="6.18001">
        <ele>546</ele>
        <time>2024-04-07T12:52:00.000Z</time>
      </trkpt>
      <trkpt lat="43.37159" lon="6.18023">
        <ele>543</ele>
        <time>2024-04-07T12:52:14.000Z</time>
      </trkpt>
      <trkpt lat="43.3716" lon="6.18042">
        <ele>540</ele>
        <time>2024-04-07T12:52:28.000Z</time>
      </trkpt>
      <trkpt lat="43.37161" lon="6.18061">
        <ele>538</ele>
        <time>2024-04-07T12:52:42.000Z</time>
      </trkpt>
      <trkpt lat="43.37167" lon="6.18086">
        <ele>532</ele>
        <time>2024-04-07T12:53:02.000Z</time>
      </trkpt>
      <trkpt lat="43.37172" lon="6.18109">
        <ele>530</ele>
        <time>2024-04-07T12:53:16.000Z</time>
      </trkpt>
      <trkpt lat="43.37172" lon="6.1813">
        <ele>527</ele>
        <time>2024-04-07T12:53:30.000Z</time>
      </trkpt>
      <trkpt lat="43.37169" lon="6.18152">
        <ele>527</ele>
        <time>2024-04-07T12:53:49.000Z</time>
      </trkpt>
      <trkpt lat="43.37166" lon="6.18172">
        <ele>526</ele>
        <time>2024-04-07T12:54:03.000Z</time>
      </trkpt>
      <trkpt lat="43.37163" lon="6.18192">
        <ele>524</ele>
        <time>2024-04-07T12:54:17.000Z</time>
      </trkpt>
      <trkpt lat="43.3716" lon="6.18212">
        <ele>522</ele>
        <time>2024-04-07T12:54:32.000Z</time>
      </trkpt>
      <trkpt lat="43.37157" lon="6.18233">
        <ele>519</ele>
        <time>2024-04-07T12:54:46.000Z</time>
      </trkpt>
      <trkpt lat="43.37155" lon="6.18255">
        <ele>515</ele>
        <time>2024-04-07T12:55:00.000Z</time>
      </trkpt>
      <trkpt lat="43.37148" lon="6.18272">
        <ele>514</ele>
        <time>2024-04-07T12:55:20.000Z</time>
      </trkpt>
      <trkpt lat="43.37146" lon="6.18296">
        <ele>514</ele>
        <time>2024-04-07T12:55:39.000Z</time>
      </trkpt>
      <trkpt lat="43.3715" lon="6.18318">
        <ele>512</ele>
        <time>2024-04-07T12:55:58.000Z</time>
      </trkpt>
      <trkpt lat="43.37152" lon="6.18337">
        <ele>509</ele>
        <time>2024-04-07T12:56:12.000Z</time>
      </trkpt>
      <trkpt lat="43.37153" lon="6.18356">
        <ele>507</ele>
        <time>2024-04-07T12:56:26.000Z</time>
      </trkpt>
      <trkpt lat="43.37156" lon="6.18374">
        <ele>505</ele>
        <time>2024-04-07T12:56:41.000Z</time>
      </trkpt>
      <trkpt lat="43.37154" lon="6.18398">
        <ele>503</ele>
        <time>2024-04-07T12:57:00.000Z</time>
      </trkpt>
      <trkpt lat="43.3715" lon="6.18417">
        <ele>502</ele>
        <time>2024-04-07T12:57:14.000Z</time>
      </trkpt>
      <trkpt lat="43.37152" lon="6.18438">
        <ele>500</ele>
        <time>2024-04-07T12:57:28.000Z</time>
      </trkpt>
      <trkpt lat="43.37153" lon="6.18457">
        <ele>496</ele>
        <time>2024-04-07T12:57:49.000Z</time>
      </trkpt>
      <trkpt lat="43.37145" lon="6.18475">
        <ele>494</ele>
        <time>2024-04-07T12:58:04.000Z</time>
      </trkpt>
      <trkpt lat="43.37128" lon="6.18482">
        <ele>484</ele>
        <time>2024-04-07T12:58:34.000Z</time>
      </trkpt>
      <trkpt lat="43.37122" lon="6.185">
        <ele>489</ele>
        <time>2024-04-07T12:58:48.000Z</time>
      </trkpt>
      <trkpt lat="43.37108" lon="6.18506">
        <ele>493</ele>
        <time>2024-04-07T12:59:26.000Z</time>
      </trkpt>
      <trkpt lat="43.37095" lon="6.18512">
        <ele>493</ele>
        <time>2024-04-07T12:59:41.000Z</time>
      </trkpt>
      <trkpt lat="43.3708" lon="6.18513">
        <ele>494</ele>
        <time>2024-04-07T12:59:55.000Z</time>
      </trkpt>
      <trkpt lat="43.37071" lon="6.18527">
        <ele>496</ele>
        <time>2024-04-07T13:00:09.000Z</time>
      </trkpt>
      <trkpt lat="43.37068" lon="6.18548">
        <ele>495</ele>
        <time>2024-04-07T13:01:20.000Z</time>
      </trkpt>
      <trkpt lat="43.37061" lon="6.18565">
        <ele>497</ele>
        <time>2024-04-07T13:01:58.000Z</time>
      </trkpt>
      <trkpt lat="43.37057" lon="6.18585">
        <ele>498</ele>
        <time>2024-04-07T13:02:28.000Z</time>
      </trkpt>
      <trkpt lat="43.37052" lon="6.18604">
        <ele>498</ele>
        <time>2024-04-07T13:02:46.000Z</time>
      </trkpt>
      <trkpt lat="43.37049" lon="6.18626">
        <ele>498</ele>
        <time>2024-04-07T13:03:17.000Z</time>
      </trkpt>
      <trkpt lat="43.37047" lon="6.18645">
        <ele>499</ele>
        <time>2024-04-07T13:03:42.000Z</time>
      </trkpt>
      <trkpt lat="43.37037" lon="6.18662">
        <ele>499</ele>
        <time>2024-04-07T13:09:43.000Z</time>
      </trkpt>
      <trkpt lat="43.37024" lon="6.18671">
        <ele>499</ele>
        <time>2024-04-07T13:10:01.000Z</time>
      </trkpt>
      <trkpt lat="43.37012" lon="6.18693">
        <ele>493</ele>
        <time>2024-04-07T13:10:43.000Z</time>
      </trkpt>
      <trkpt lat="43.36999" lon="6.18709">
        <ele>490</ele>
        <time>2024-04-07T13:11:07.000Z</time>
      </trkpt>
      <trkpt lat="43.3699" lon="6.18728">
        <ele>484</ele>
        <time>2024-04-07T13:11:56.000Z</time>
      </trkpt>
      <trkpt lat="43.36974" lon="6.18736">
        <ele>478</ele>
        <time>2024-04-07T13:12:35.000Z</time>
      </trkpt>
      <trkpt lat="43.36965" lon="6.18756">
        <ele>473</ele>
        <time>2024-04-07T13:13:10.000Z</time>
      </trkpt>
      <trkpt lat="43.36957" lon="6.18772">
        <ele>468</ele>
        <time>2024-04-07T13:13:43.000Z</time>
      </trkpt>
      <trkpt lat="43.3695" lon="6.18789">
        <ele>463</ele>
        <time>2024-04-07T13:14:18.000Z</time>
      </trkpt>
      <trkpt lat="43.36952" lon="6.1881">
        <ele>460</ele>
        <time>2024-04-07T13:14:37.000Z</time>
      </trkpt>
      <trkpt lat="43.36948" lon="6.18828">
        <ele>458</ele>
        <time>2024-04-07T13:14:57.000Z</time>
      </trkpt>
      <trkpt lat="43.36934" lon="6.18835">
        <ele>456</ele>
        <time>2024-04-07T13:15:16.000Z</time>
      </trkpt>
      <trkpt lat="43.36921" lon="6.18844">
        <ele>454</ele>
        <time>2024-04-07T13:15:31.000Z</time>
      </trkpt>
      <trkpt lat="43.36913" lon="6.1886">
        <ele>450</ele>
        <time>2024-04-07T13:15:46.000Z</time>
      </trkpt>
      <trkpt lat="43.36903" lon="6.18877">
        <ele>445</ele>
        <time>2024-04-07T13:16:05.000Z</time>
      </trkpt>
      <trkpt lat="43.3685" lon="6.19021">
        <ele>443</ele>
        <time>2024-04-07T13:20:37.000Z</time>
      </trkpt>
      <trkpt lat="43.36841" lon="6.19037">
        <ele>442</ele>
        <time>2024-04-07T13:20:52.000Z</time>
      </trkpt>
      <trkpt lat="43.36829" lon="6.19046">
        <ele>439</ele>
        <time>2024-04-07T13:21:11.000Z</time>
      </trkpt>
      <trkpt lat="43.36818" lon="6.19058">
        <ele>436</ele>
        <time>2024-04-07T13:22:01.000Z</time>
      </trkpt>
      <trkpt lat="43.36805" lon="6.19067">
        <ele>434</ele>
        <time>2024-04-07T13:22:30.000Z</time>
      </trkpt>
      <trkpt lat="43.36793" lon="6.19085">
        <ele>432</ele>
        <time>2024-04-07T13:22:54.000Z</time>
      </trkpt>
      <trkpt lat="43.3678" lon="6.19082">
        <ele>429</ele>
        <time>2024-04-07T13:23:08.000Z</time>
      </trkpt>
      <trkpt lat="43.36766" lon="6.19088">
        <ele>424</ele>
        <time>2024-04-07T13:23:28.000Z</time>
      </trkpt>
      <trkpt lat="43.36762" lon="6.19111">
        <ele>421</ele>
        <time>2024-04-07T13:23:46.000Z</time>
      </trkpt>
      <trkpt lat="43.36768" lon="6.19128">
        <ele>417</ele>
        <time>2024-04-07T13:24:05.000Z</time>
      </trkpt>
      <trkpt lat="43.36758" lon="6.19148">
        <ele>414</ele>
        <time>2024-04-07T13:24:24.000Z</time>
      </trkpt>
      <trkpt lat="43.36772" lon="6.1916">
        <ele>414</ele>
        <time>2024-04-07T13:24:38.000Z</time>
      </trkpt>
      <trkpt lat="43.36769" lon="6.19184">
        <ele>410</ele>
        <time>2024-04-07T13:25:13.000Z</time>
      </trkpt>
      <trkpt lat="43.36757" lon="6.19191">
        <ele>409</ele>
        <time>2024-04-07T13:25:40.000Z</time>
      </trkpt>
      <trkpt lat="43.36742" lon="6.19196">
        <ele>408</ele>
        <time>2024-04-07T13:26:09.000Z</time>
      </trkpt>
      <trkpt lat="43.3673" lon="6.19186">
        <ele>405</ele>
        <time>2024-04-07T13:26:24.000Z</time>
      </trkpt>
      <trkpt lat="43.36723" lon="6.19203">
        <ele>402</ele>
        <time>2024-04-07T13:26:49.000Z</time>
      </trkpt>
      <trkpt lat="43.3674" lon="6.19192">
        <ele>360</ele>
        <time>2024-04-07T13:27:19.000Z</time>
      </trkpt>
      <trkpt lat="43.36724" lon="6.19224">
        <ele>365</ele>
        <time>2024-04-07T13:27:29.000Z</time>
      </trkpt>
      <trkpt lat="43.36717" lon="6.19245">
        <ele>381</ele>
        <time>2024-04-07T13:27:40.000Z</time>
      </trkpt>
      <trkpt lat="43.36703" lon="6.19246">
        <ele>385</ele>
        <time>2024-04-07T13:28:09.000Z</time>
      </trkpt>
      <trkpt lat="43.36689" lon="6.19258">
        <ele>385</ele>
        <time>2024-04-07T13:29:17.000Z</time>
      </trkpt>
      <trkpt lat="43.36686" lon="6.19278">
        <ele>380</ele>
        <time>2024-04-07T13:30:06.000Z</time>
      </trkpt>
      <trkpt lat="43.36686" lon="6.19297">
        <ele>372</ele>
        <time>2024-04-07T13:30:35.000Z</time>
      </trkpt>
      <trkpt lat="43.36682" lon="6.19318">
        <ele>367</ele>
        <time>2024-04-07T13:30:55.000Z</time>
      </trkpt>
      <trkpt lat="43.36681" lon="6.1934">
        <ele>363</ele>
        <time>2024-04-07T13:31:09.000Z</time>
      </trkpt>
      <trkpt lat="43.36677" lon="6.19358">
        <ele>364</ele>
        <time>2024-04-07T13:31:19.000Z</time>
      </trkpt>
      <trkpt lat="43.36681" lon="6.19381">
        <ele>363</ele>
        <time>2024-04-07T13:37:21.000Z</time>
      </trkpt>
      <trkpt lat="43.36687" lon="6.194">
        <ele>363</ele>
        <time>2024-04-07T13:37:36.000Z</time>
      </trkpt>
      <trkpt lat="43.36684" lon="6.19429">
        <ele>364</ele>
        <time>2024-04-07T13:37:57.000Z</time>
      </trkpt>
      <trkpt lat="43.36688" lon="6.1945">
        <ele>363</ele>
        <time>2024-04-07T13:38:07.000Z</time>
      </trkpt>
      <trkpt lat="43.36684" lon="6.19473">
        <ele>364</ele>
        <time>2024-04-07T13:38:21.000Z</time>
      </trkpt>
      <trkpt lat="43.36689" lon="6.19497">
        <ele>366</ele>
        <time>2024-04-07T13:38:35.000Z</time>
      </trkpt>
      <trkpt lat="43.36693" lon="6.19521">
        <ele>363</ele>
        <time>2024-04-07T13:38:50.000Z</time>
      </trkpt>
      <trkpt lat="43.36689" lon="6.19545">
        <ele>362</ele>
        <time>2024-04-07T13:39:04.000Z</time>
      </trkpt>
      <trkpt lat="43.36702" lon="6.19554">
        <ele>362</ele>
        <time>2024-04-07T13:39:14.000Z</time>
      </trkpt>
      <trkpt lat="43.36708" lon="6.19577">
        <ele>357</ele>
        <time>2024-04-07T13:39:33.000Z</time>
      </trkpt>
      <trkpt lat="43.36713" lon="6.19597">
        <ele>354</ele>
        <time>2024-04-07T13:39:48.000Z</time>
      </trkpt>
      <trkpt lat="43.36721" lon="6.19615">
        <ele>352</ele>
        <time>2024-04-07T13:40:02.000Z</time>
      </trkpt>
      <trkpt lat="43.36716" lon="6.19633">
        <ele>352</ele>
        <time>2024-04-07T13:40:12.000Z</time>
      </trkpt>
      <trkpt lat="43.36717" lon="6.19653">
        <ele>350</ele>
        <time>2024-04-07T13:40:27.000Z</time>
      </trkpt>
      <trkpt lat="43.36722" lon="6.19671">
        <ele>347</ele>
        <time>2024-04-07T13:40:42.000Z</time>
      </trkpt>
      <trkpt lat="43.36717" lon="6.19694">
        <ele>346</ele>
        <time>2024-04-07T13:40:57.000Z</time>
      </trkpt>
      <trkpt lat="43.36715" lon="6.19718">
        <ele>336</ele>
        <time>2024-04-07T13:41:27.000Z</time>
      </trkpt>
      <trkpt lat="43.3672" lon="6.19741">
        <ele>336</ele>
        <time>2024-04-07T13:41:47.000Z</time>
      </trkpt>
      <trkpt lat="43.36731" lon="6.19767">
        <ele>336</ele>
        <time>2024-04-07T13:43:16.000Z</time>
      </trkpt>
      <trkpt lat="43.36734" lon="6.19792">
        <ele>335</ele>
        <time>2024-04-07T13:43:30.000Z</time>
      </trkpt>
      <trkpt lat="43.36742" lon="6.19812">
        <ele>333</ele>
        <time>2024-04-07T13:43:44.000Z</time>
      </trkpt>
      <trkpt lat="43.36748" lon="6.19838">
        <ele>333</ele>
        <time>2024-04-07T13:43:59.000Z</time>
      </trkpt>
      <trkpt lat="43.36743" lon="6.19863">
        <ele>332</ele>
        <time>2024-04-07T13:44:14.000Z</time>
      </trkpt>
      <trkpt lat="43.36742" lon="6.19885">
        <ele>331</ele>
        <time>2024-04-07T13:44:28.000Z</time>
      </trkpt>
      <trkpt lat="43.36744" lon="6.19909">
        <ele>328</ele>
        <time>2024-04-07T13:44:42.000Z</time>
      </trkpt>
      <trkpt lat="43.3675" lon="6.19931">
        <ele>327</ele>
        <time>2024-04-07T13:44:57.000Z</time>
      </trkpt>
      <trkpt lat="43.36755" lon="6.19954">
        <ele>327</ele>
        <time>2024-04-07T13:45:11.000Z</time>
      </trkpt>
      <trkpt lat="43.36754" lon="6.19984">
        <ele>323</ele>
        <time>2024-04-07T13:45:48.000Z</time>
      </trkpt>
      <trkpt lat="43.36751" lon="6.20008">
        <ele>324</ele>
        <time>2024-04-07T13:46:02.000Z</time>
      </trkpt>
      <trkpt lat="43.36748" lon="6.20031">
        <ele>325</ele>
        <time>2024-04-07T13:46:17.000Z</time>
      </trkpt>
      <trkpt lat="43.36751" lon="6.20055">
        <ele>321</ele>
        <time>2024-04-07T13:46:31.000Z</time>
      </trkpt>
      <trkpt lat="43.36749" lon="6.20032">
        <ele>317</ele>
        <time>2024-04-07T13:48:14.000Z</time>
      </trkpt>
      <trkpt lat="43.36751" lon="6.20009">
        <ele>319</ele>
        <time>2024-04-07T13:48:29.000Z</time>
      </trkpt>
      <trkpt lat="43.36755" lon="6.19991">
        <ele>319</ele>
        <time>2024-04-07T13:48:44.000Z</time>
      </trkpt>
      <trkpt lat="43.36749" lon="6.19972">
        <ele>318</ele>
        <time>2024-04-07T13:48:58.000Z</time>
      </trkpt>
      <trkpt lat="43.36735" lon="6.19968">
        <ele>319</ele>
        <time>2024-04-07T13:49:15.000Z</time>
      </trkpt>
      <trkpt lat="43.36719" lon="6.19966">
        <ele>319</ele>
        <time>2024-04-07T13:49:29.000Z</time>
      </trkpt>
      <trkpt lat="43.36703" lon="6.19966">
        <ele>318</ele>
        <time>2024-04-07T13:49:44.000Z</time>
      </trkpt>
      <trkpt lat="43.36701" lon="6.19942">
        <ele>319</ele>
        <time>2024-04-07T13:49:59.000Z</time>
      </trkpt>
      <trkpt lat="43.36691" lon="6.19922">
        <ele>319</ele>
        <time>2024-04-07T13:50:13.000Z</time>
      </trkpt>
      <trkpt lat="43.36692" lon="6.19898">
        <ele>319</ele>
        <time>2024-04-07T13:50:27.000Z</time>
      </trkpt>
      <trkpt lat="43.36688" lon="6.19875">
        <ele>318</ele>
        <time>2024-04-07T13:50:42.000Z</time>
      </trkpt>
      <trkpt lat="43.36678" lon="6.19852">
        <ele>317</ele>
        <time>2024-04-07T13:50:56.000Z</time>
      </trkpt>
      <trkpt lat="43.36673" lon="6.1983">
        <ele>315</ele>
        <time>2024-04-07T13:51:10.000Z</time>
      </trkpt>
      <trkpt lat="43.3667" lon="6.19808">
        <ele>315</ele>
        <time>2024-04-07T13:51:25.000Z</time>
      </trkpt>
      <trkpt lat="43.36663" lon="6.1979">
        <ele>314</ele>
        <time>2024-04-07T13:51:39.000Z</time>
      </trkpt>
      <trkpt lat="43.36657" lon="6.19771">
        <ele>315</ele>
        <time>2024-04-07T13:51:53.000Z</time>
      </trkpt>
      <trkpt lat="43.36641" lon="6.19763">
        <ele>314</ele>
        <time>2024-04-07T13:52:07.000Z</time>
      </trkpt>
      <trkpt lat="43.36635" lon="6.19783">
        <ele>309</ele>
        <time>2024-04-07T13:52:21.000Z</time>
      </trkpt>
      <trkpt lat="43.36626" lon="6.19798">
        <ele>309</ele>
        <time>2024-04-07T13:52:31.000Z</time>
      </trkpt>
      <trkpt lat="43.3661" lon="6.19815">
        <ele>308</ele>
        <time>2024-04-07T13:52:45.000Z</time>
      </trkpt>
      <trkpt lat="43.36597" lon="6.19827">
        <ele>306</ele>
        <time>2024-04-07T13:53:00.000Z</time>
      </trkpt>
      <trkpt lat="43.36581" lon="6.19839">
        <ele>305</ele>
        <time>2024-04-07T13:53:14.000Z</time>
      </trkpt>
      <trkpt lat="43.36563" lon="6.19845">
        <ele>305</ele>
        <time>2024-04-07T13:53:28.000Z</time>
      </trkpt>
      <trkpt lat="43.36552" lon="6.19859">
        <ele>305</ele>
        <time>2024-04-07T13:53:43.000Z</time>
      </trkpt>
      <trkpt lat="43.36537" lon="6.19857">
        <ele>295</ele>
        <time>2024-04-07T13:54:02.000Z</time>
      </trkpt>
      <trkpt lat="43.36552" lon="6.19869">
        <ele>295</ele>
        <time>2024-04-07T13:54:17.000Z</time>
      </trkpt>
      <trkpt lat="43.3656" lon="6.1989">
        <ele>295</ele>
        <time>2024-04-07T13:54:31.000Z</time>
      </trkpt>
      <trkpt lat="43.36568" lon="6.19912">
        <ele>295</ele>
        <time>2024-04-07T13:54:45.000Z</time>
      </trkpt>
      <trkpt lat="43.36574" lon="6.19935">
        <ele>295</ele>
        <time>2024-04-07T13:55:00.000Z</time>
      </trkpt>
      <trkpt lat="43.36567" lon="6.19955">
        <ele>295</ele>
        <time>2024-04-07T13:55:14.000Z</time>
      </trkpt>
      <trkpt lat="43.36554" lon="6.19972">
        <ele>295</ele>
        <time>2024-04-07T13:55:28.000Z</time>
      </trkpt>
      <trkpt lat="43.36543" lon="6.19989">
        <ele>295</ele>
        <time>2024-04-07T13:55:43.000Z</time>
      </trkpt>
      <trkpt lat="43.36532" lon="6.20007">
        <ele>295</ele>
        <time>2024-04-07T13:55:58.000Z</time>
      </trkpt>
      <trkpt lat="43.3652" lon="6.20025">
        <ele>295</ele>
        <time>2024-04-07T13:56:18.000Z</time>
      </trkpt>
      <trkpt lat="43.36508" lon="6.20041">
        <ele>295</ele>
        <time>2024-04-07T13:56:32.000Z</time>
      </trkpt>
      <trkpt lat="43.36498" lon="6.20059">
        <ele>295</ele>
        <time>2024-04-07T13:56:46.000Z</time>
      </trkpt>
      <trkpt lat="43.36487" lon="6.20075">
        <ele>295</ele>
        <time>2024-04-07T13:57:01.000Z</time>
      </trkpt>
      <trkpt lat="43.36471" lon="6.20086">
        <ele>298</ele>
        <time>2024-04-07T13:57:16.000Z</time>
      </trkpt>
      <trkpt lat="43.36467" lon="6.20106">
        <ele>299</ele>
        <time>2024-04-07T13:57:30.000Z</time>
      </trkpt>
      <trkpt lat="43.36475" lon="6.20127">
        <ele>301</ele>
        <time>2024-04-07T13:57:45.000Z</time>
      </trkpt>
      <trkpt lat="43.36486" lon="6.20147">
        <ele>301</ele>
        <time>2024-04-07T13:57:59.000Z</time>
      </trkpt>
      <trkpt lat="43.36489" lon="6.20168">
        <ele>300</ele>
        <time>2024-04-07T13:58:14.000Z</time>
      </trkpt>
      <trkpt lat="43.36493" lon="6.20191">
        <ele>304</ele>
        <time>2024-04-07T13:58:28.000Z</time>
      </trkpt>
      <trkpt lat="43.365" lon="6.20213">
        <ele>304</ele>
        <time>2024-04-07T13:58:43.000Z</time>
      </trkpt>
      <trkpt lat="43.36506" lon="6.20235">
        <ele>304</ele>
        <time>2024-04-07T13:58:58.000Z</time>
      </trkpt>
      <trkpt lat="43.36509" lon="6.2026">
        <ele>304</ele>
        <time>2024-04-07T13:59:12.000Z</time>
      </trkpt>
      <trkpt lat="43.36513" lon="6.2028">
        <ele>304</ele>
        <time>2024-04-07T13:59:26.000Z</time>
      </trkpt>
      <trkpt lat="43.36524" lon="6.20296">
        <ele>304</ele>
        <time>2024-04-07T13:59:41.000Z</time>
      </trkpt>
      <trkpt lat="43.36514" lon="6.20311">
        <ele>298</ele>
        <time>2024-04-07T14:01:36.000Z</time>
      </trkpt>
      <trkpt lat="43.36496" lon="6.20308">
        <ele>298</ele>
        <time>2024-04-07T14:01:51.000Z</time>
      </trkpt>
      <trkpt lat="43.36479" lon="6.20311">
        <ele>298</ele>
        <time>2024-04-07T14:02:05.000Z</time>
      </trkpt>
      <trkpt lat="43.36462" lon="6.20314">
        <ele>298</ele>
        <time>2024-04-07T14:02:19.000Z</time>
      </trkpt>
      <trkpt lat="43.36442" lon="6.20314">
        <ele>302</ele>
        <time>2024-04-07T14:02:34.000Z</time>
      </trkpt>
      <trkpt lat="43.36426" lon="6.20324">
        <ele>303</ele>
        <time>2024-04-07T14:02:49.000Z</time>
      </trkpt>
      <trkpt lat="43.36413" lon="6.20335">
        <ele>303</ele>
        <time>2024-04-07T14:03:04.000Z</time>
      </trkpt>
      <trkpt lat="43.36394" lon="6.20337">
        <ele>302</ele>
        <time>2024-04-07T14:03:20.000Z</time>
      </trkpt>
      <trkpt lat="43.36375" lon="6.20335">
        <ele>303</ele>
        <time>2024-04-07T14:03:35.000Z</time>
      </trkpt>
      <trkpt lat="43.36361" lon="6.20336">
        <ele>303</ele>
        <time>2024-04-07T14:03:45.000Z</time>
      </trkpt>
      <trkpt lat="43.36347" lon="6.20334">
        <ele>304</ele>
        <time>2024-04-07T14:03:55.000Z</time>
      </trkpt>
      <trkpt lat="43.36329" lon="6.20335">
        <ele>305</ele>
        <time>2024-04-07T14:04:10.000Z</time>
      </trkpt>
      <trkpt lat="43.36315" lon="6.20332">
        <ele>307</ele>
        <time>2024-04-07T14:04:22.000Z</time>
      </trkpt>
      <trkpt lat="43.36299" lon="6.20325">
        <ele>306</ele>
        <time>2024-04-07T14:04:37.000Z</time>
      </trkpt>
      <trkpt lat="43.36285" lon="6.20313">
        <ele>304</ele>
        <time>2024-04-07T14:04:48.000Z</time>
      </trkpt>
      <trkpt lat="43.36273" lon="6.20305">
        <ele>304</ele>
        <time>2024-04-07T14:04:57.000Z</time>
      </trkpt>
      <trkpt lat="43.36263" lon="6.20289">
        <ele>304</ele>
        <time>2024-04-07T14:05:13.000Z</time>
      </trkpt>
      <trkpt lat="43.36254" lon="6.20272">
        <ele>305</ele>
        <time>2024-04-07T14:05:23.000Z</time>
      </trkpt>
      <trkpt lat="43.36247" lon="6.20245">
        <ele>314</ele>
        <time>2024-04-07T14:08:09.000Z</time>
      </trkpt>
      <trkpt lat="43.36238" lon="6.20224">
        <ele>314</ele>
        <time>2024-04-07T14:08:23.000Z</time>
      </trkpt>
      <trkpt lat="43.36228" lon="6.20202">
        <ele>314</ele>
        <time>2024-04-07T14:08:37.000Z</time>
      </trkpt>
      <trkpt lat="43.36222" lon="6.20185">
        <ele>314</ele>
        <time>2024-04-07T14:08:53.000Z</time>
      </trkpt>
      <trkpt lat="43.36217" lon="6.20165">
        <ele>314</ele>
        <time>2024-04-07T14:09:03.000Z</time>
      </trkpt>
      <trkpt lat="43.36208" lon="6.20151">
        <ele>305</ele>
        <time>2024-04-07T14:09:12.000Z</time>
      </trkpt>
      <trkpt lat="43.36195" lon="6.20133">
        <ele>305</ele>
        <time>2024-04-07T14:09:27.000Z</time>
      </trkpt>
      <trkpt lat="43.36185" lon="6.20119">
        <ele>302</ele>
        <time>2024-04-07T14:09:42.000Z</time>
      </trkpt>
      <trkpt lat="43.36173" lon="6.20101">
        <ele>303</ele>
        <time>2024-04-07T14:09:56.000Z</time>
      </trkpt>
      <trkpt lat="43.36163" lon="6.20086">
        <ele>302</ele>
        <time>2024-04-07T14:10:10.000Z</time>
      </trkpt>
      <trkpt lat="43.36152" lon="6.20067">
        <ele>304</ele>
        <time>2024-04-07T14:10:24.000Z</time>
      </trkpt>
      <trkpt lat="43.36138" lon="6.20049">
        <ele>307</ele>
        <time>2024-04-07T14:10:39.000Z</time>
      </trkpt>
      <trkpt lat="43.36129" lon="6.20034">
        <ele>308</ele>
        <time>2024-04-07T14:10:48.000Z</time>
      </trkpt>
      <trkpt lat="43.3612" lon="6.20014">
        <ele>308</ele>
        <time>2024-04-07T14:11:03.000Z</time>
      </trkpt>
      <trkpt lat="43.3611" lon="6.19994">
        <ele>309</ele>
        <time>2024-04-07T14:11:17.000Z</time>
      </trkpt>
      <trkpt lat="43.36101" lon="6.19974">
        <ele>308</ele>
        <time>2024-04-07T14:11:31.000Z</time>
      </trkpt>
      <trkpt lat="43.36086" lon="6.19959">
        <ele>306</ele>
        <time>2024-04-07T14:11:45.000Z</time>
      </trkpt>
      <trkpt lat="43.36075" lon="6.1994">
        <ele>304</ele>
        <time>2024-04-07T14:11:59.000Z</time>
      </trkpt>
      <trkpt lat="43.36066" lon="6.19921">
        <ele>304</ele>
        <time>2024-04-07T14:12:13.000Z</time>
      </trkpt>
      <trkpt lat="43.36059" lon="6.19897">
        <ele>305</ele>
        <time>2024-04-07T14:12:27.000Z</time>
      </trkpt>
      <trkpt lat="43.36052" lon="6.19875">
        <ele>305</ele>
        <time>2024-04-07T14:12:41.000Z</time>
      </trkpt>
      <trkpt lat="43.36039" lon="6.19856">
        <ele>304</ele>
        <time>2024-04-07T14:12:55.000Z</time>
      </trkpt>
      <trkpt lat="43.36024" lon="6.19842">
        <ele>303</ele>
        <time>2024-04-07T14:13:14.000Z</time>
      </trkpt>
      <trkpt lat="43.36009" lon="6.19838">
        <ele>303</ele>
        <time>2024-04-07T14:13:35.000Z</time>
      </trkpt>
      <trkpt lat="43.35998" lon="6.19827">
        <ele>295</ele>
        <time>2024-04-07T14:16:14.000Z</time>
      </trkpt>
      <trkpt lat="43.35999" lon="6.19802">
        <ele>298</ele>
        <time>2024-04-07T14:21:10.000Z</time>
      </trkpt>
      <trkpt lat="43.35996" lon="6.1978">
        <ele>297</ele>
        <time>2024-04-07T14:21:25.000Z</time>
      </trkpt>
      <trkpt lat="43.35993" lon="6.19756">
        <ele>298</ele>
        <time>2024-04-07T14:21:39.000Z</time>
      </trkpt>
      <trkpt lat="43.35989" lon="6.19734">
        <ele>299</ele>
        <time>2024-04-07T14:21:54.000Z</time>
      </trkpt>
      <trkpt lat="43.35986" lon="6.19711">
        <ele>300</ele>
        <time>2024-04-07T14:22:08.000Z</time>
      </trkpt>
      <trkpt lat="43.35983" lon="6.19687">
        <ele>301</ele>
        <time>2024-04-07T14:22:23.000Z</time>
      </trkpt>
      <trkpt lat="43.35979" lon="6.19663">
        <ele>302</ele>
        <time>2024-04-07T14:22:37.000Z</time>
      </trkpt>
      <trkpt lat="43.35978" lon="6.19637">
        <ele>302</ele>
        <time>2024-04-07T14:22:51.000Z</time>
      </trkpt>
      <trkpt lat="43.35978" lon="6.19614">
        <ele>304</ele>
        <time>2024-04-07T14:23:06.000Z</time>
      </trkpt>
      <trkpt lat="43.35971" lon="6.19592">
        <ele>305</ele>
        <time>2024-04-07T14:23:21.000Z</time>
      </trkpt>
      <trkpt lat="43.35965" lon="6.1957">
        <ele>306</ele>
        <time>2024-04-07T14:23:36.000Z</time>
      </trkpt>
      <trkpt lat="43.35962" lon="6.19549">
        <ele>306</ele>
        <time>2024-04-07T14:23:50.000Z</time>
      </trkpt>
      <trkpt lat="43.35964" lon="6.19528">
        <ele>304</ele>
        <time>2024-04-07T14:24:04.000Z</time>
      </trkpt>
      <trkpt lat="43.35971" lon="6.19507">
        <ele>303</ele>
        <time>2024-04-07T14:24:19.000Z</time>
      </trkpt>
      <trkpt lat="43.35975" lon="6.19485">
        <ele>304</ele>
        <time>2024-04-07T14:24:33.000Z</time>
      </trkpt>
      <trkpt lat="43.35983" lon="6.19467">
        <ele>302</ele>
        <time>2024-04-07T14:24:48.000Z</time>
      </trkpt>
      <trkpt lat="43.35992" lon="6.19449">
        <ele>302</ele>
        <time>2024-04-07T14:25:02.000Z</time>
      </trkpt>
      <trkpt lat="43.36" lon="6.19431">
        <ele>303</ele>
        <time>2024-04-07T14:25:17.000Z</time>
      </trkpt>
      <trkpt lat="43.35992" lon="6.19412">
        <ele>305</ele>
        <time>2024-04-07T14:25:41.000Z</time>
      </trkpt>
      <trkpt lat="43.35983" lon="6.19393">
        <ele>309</ele>
        <time>2024-04-07T14:25:55.000Z</time>
      </trkpt>
      <trkpt lat="43.35983" lon="6.19369">
        <ele>313</ele>
        <time>2024-04-07T14:26:14.000Z</time>
      </trkpt>
      <trkpt lat="43.3599" lon="6.1935">
        <ele>314</ele>
        <time>2024-04-07T14:26:28.000Z</time>
      </trkpt>
      <trkpt lat="43.35977" lon="6.19335">
        <ele>321</ele>
        <time>2024-04-07T14:27:07.000Z</time>
      </trkpt>
      <trkpt lat="43.35964" lon="6.19327">
        <ele>322</ele>
        <time>2024-04-07T14:27:22.000Z</time>
      </trkpt>
      <trkpt lat="43.35951" lon="6.1932">
        <ele>323</ele>
        <time>2024-04-07T14:27:37.000Z</time>
      </trkpt>
      <trkpt lat="43.35938" lon="6.19314">
        <ele>324</ele>
        <time>2024-04-07T14:27:51.000Z</time>
      </trkpt>
      <trkpt lat="43.35926" lon="6.19303">
        <ele>325</ele>
        <time>2024-04-07T14:28:05.000Z</time>
      </trkpt>
      <trkpt lat="43.35914" lon="6.19282">
        <ele>326</ele>
        <time>2024-04-07T14:28:21.000Z</time>
      </trkpt>
      <trkpt lat="43.35905" lon="6.19263">
        <ele>322</ele>
        <time>2024-04-07T14:28:36.000Z</time>
      </trkpt>
      <trkpt lat="43.35901" lon="6.19239">
        <ele>322</ele>
        <time>2024-04-07T14:28:51.000Z</time>
      </trkpt>
      <trkpt lat="43.35903" lon="6.19218">
        <ele>319</ele>
        <time>2024-04-07T14:29:05.000Z</time>
      </trkpt>
      <trkpt lat="43.35905" lon="6.19196">
        <ele>317</ele>
        <time>2024-04-07T14:29:19.000Z</time>
      </trkpt>
      <trkpt lat="43.35906" lon="6.19172">
        <ele>315</ele>
        <time>2024-04-07T14:29:33.000Z</time>
      </trkpt>
      <trkpt lat="43.35907" lon="6.19151">
        <ele>312</ele>
        <time>2024-04-07T14:29:48.000Z</time>
      </trkpt>
      <trkpt lat="43.35917" lon="6.19134">
        <ele>310</ele>
        <time>2024-04-07T14:30:02.000Z</time>
      </trkpt>
      <trkpt lat="43.3592" lon="6.19112">
        <ele>309</ele>
        <time>2024-04-07T14:30:16.000Z</time>
      </trkpt>
      <trkpt lat="43.35902" lon="6.19103">
        <ele>305</ele>
        <time>2024-04-07T14:30:30.000Z</time>
      </trkpt>
      <trkpt lat="43.35886" lon="6.19103">
        <ele>298</ele>
        <time>2024-04-07T14:30:45.000Z</time>
      </trkpt>
      <trkpt lat="43.35892" lon="6.19082">
        <ele>297</ele>
        <time>2024-04-07T14:32:50.000Z</time>
      </trkpt>
      <trkpt lat="43.35891" lon="6.19062">
        <ele>298</ele>
        <time>2024-04-07T14:33:04.000Z</time>
      </trkpt>
      <trkpt lat="43.35896" lon="6.19036">
        <ele>300</ele>
        <time>2024-04-07T14:33:19.000Z</time>
      </trkpt>
      <trkpt lat="43.35894" lon="6.19013">
        <ele>300</ele>
        <time>2024-04-07T14:33:33.000Z</time>
      </trkpt>
      <trkpt lat="43.35913" lon="6.19016">
        <ele>298</ele>
        <time>2024-04-07T14:34:31.000Z</time>
      </trkpt>
      <trkpt lat="43.35928" lon="6.19021">
        <ele>298</ele>
        <time>2024-04-07T14:34:50.000Z</time>
      </trkpt>
      <trkpt lat="43.35942" lon="6.19023">
        <ele>298</ele>
        <time>2024-04-07T14:35:09.000Z</time>
      </trkpt>
      <trkpt lat="43.35923" lon="6.19018">
        <ele>298</ele>
        <time>2024-04-07T14:35:52.000Z</time>
      </trkpt>
      <trkpt lat="43.35909" lon="6.19012">
        <ele>298</ele>
        <time>2024-04-07T14:36:11.000Z</time>
      </trkpt>
      <trkpt lat="43.35894" lon="6.19011">
        <ele>298</ele>
        <time>2024-04-07T14:36:25.000Z</time>
      </trkpt>
      <trkpt lat="43.3588" lon="6.19001">
        <ele>298</ele>
        <time>2024-04-07T14:36:40.000Z</time>
      </trkpt>
      <trkpt lat="43.35871" lon="6.18984">
        <ele>298</ele>
        <time>2024-04-07T14:36:54.000Z</time>
      </trkpt>
      <trkpt lat="43.35874" lon="6.1896">
        <ele>298</ele>
        <time>2024-04-07T14:37:07.000Z</time>
      </trkpt>
      <trkpt lat="43.35868" lon="6.18939">
        <ele>298</ele>
        <time>2024-04-07T14:37:21.000Z</time>
      </trkpt>
      <trkpt lat="43.35866" lon="6.18915">
        <ele>298</ele>
        <time>2024-04-07T14:37:36.000Z</time>
      </trkpt>
      <trkpt lat="43.35866" lon="6.18889">
        <ele>298</ele>
        <time>2024-04-07T14:37:50.000Z</time>
      </trkpt>
      <trkpt lat="43.35875" lon="6.18869">
        <ele>298</ele>
        <time>2024-04-07T14:38:04.000Z</time>
      </trkpt>
      <trkpt lat="43.35892" lon="6.18867">
        <ele>298</ele>
        <time>2024-04-07T14:38:23.000Z</time>
      </trkpt>
      <trkpt lat="43.35897" lon="6.18844">
        <ele>298</ele>
        <time>2024-04-07T14:39:52.000Z</time>
      </trkpt>
      <trkpt lat="43.35896" lon="6.1882">
        <ele>298</ele>
        <time>2024-04-07T14:40:07.000Z</time>
      </trkpt>
      <trkpt lat="43.35893" lon="6.18799">
        <ele>308</ele>
        <time>2024-04-07T14:40:21.000Z</time>
      </trkpt>
      <trkpt lat="43.35894" lon="6.1878">
        <ele>309</ele>
        <time>2024-04-07T14:40:35.000Z</time>
      </trkpt>
      <trkpt lat="43.35888" lon="6.18759">
        <ele>309</ele>
        <time>2024-04-07T14:40:49.000Z</time>
      </trkpt>
      <trkpt lat="43.35872" lon="6.18745">
        <ele>308</ele>
        <time>2024-04-07T14:41:04.000Z</time>
      </trkpt>
      <trkpt lat="43.35855" lon="6.18738">
        <ele>308</ele>
        <time>2024-04-07T14:41:18.000Z</time>
      </trkpt>
      <trkpt lat="43.35836" lon="6.18734">
        <ele>308</ele>
        <time>2024-04-07T14:41:34.000Z</time>
      </trkpt>
      <trkpt lat="43.3582" lon="6.18725">
        <ele>308</ele>
        <time>2024-04-07T14:41:48.000Z</time>
      </trkpt>
      <trkpt lat="43.35803" lon="6.18715">
        <ele>308</ele>
        <time>2024-04-07T14:42:02.000Z</time>
      </trkpt>
      <trkpt lat="43.3579" lon="6.18701">
        <ele>308</ele>
        <time>2024-04-07T14:42:16.000Z</time>
      </trkpt>
      <trkpt lat="43.35777" lon="6.18682">
        <ele>308</ele>
        <time>2024-04-07T14:42:31.000Z</time>
      </trkpt>
      <trkpt lat="43.35763" lon="6.18667">
        <ele>308</ele>
        <time>2024-04-07T14:42:45.000Z</time>
      </trkpt>
      <trkpt lat="43.3575" lon="6.18653">
        <ele>308</ele>
        <time>2024-04-07T14:42:59.000Z</time>
      </trkpt>
      <trkpt lat="43.35736" lon="6.1864">
        <ele>308</ele>
        <time>2024-04-07T14:43:13.000Z</time>
      </trkpt>
      <trkpt lat="43.35721" lon="6.18641">
        <ele>308</ele>
        <time>2024-04-07T14:43:28.000Z</time>
      </trkpt>
      <trkpt lat="43.35702" lon="6.18633">
        <ele>308</ele>
        <time>2024-04-07T14:43:42.000Z</time>
      </trkpt>
      <trkpt lat="43.35685" lon="6.18623">
        <ele>308</ele>
        <time>2024-04-07T14:43:56.000Z</time>
      </trkpt>
      <trkpt lat="43.35667" lon="6.18614">
        <ele>308</ele>
        <time>2024-04-07T14:44:10.000Z</time>
      </trkpt>
      <trkpt lat="43.35651" lon="6.18605">
        <ele>308</ele>
        <time>2024-04-07T14:44:24.000Z</time>
      </trkpt>
      <trkpt lat="43.35633" lon="6.18602">
        <ele>308</ele>
        <time>2024-04-07T14:44:38.000Z</time>
      </trkpt>
      <trkpt lat="43.35615" lon="6.18601">
        <ele>308</ele>
        <time>2024-04-07T14:44:52.000Z</time>
      </trkpt>
      <trkpt lat="43.35598" lon="6.18597">
        <ele>307</ele>
        <time>2024-04-07T14:45:06.000Z</time>
      </trkpt>
      <trkpt lat="43.35579" lon="6.18595">
        <ele>307</ele>
        <time>2024-04-07T14:45:20.000Z</time>
      </trkpt>
      <trkpt lat="43.35561" lon="6.18596">
        <ele>306</ele>
        <time>2024-04-07T14:45:34.000Z</time>
      </trkpt>
      <trkpt lat="43.35544" lon="6.18596">
        <ele>306</ele>
        <time>2024-04-07T14:45:48.000Z</time>
      </trkpt>
      <trkpt lat="43.35525" lon="6.18595">
        <ele>306</ele>
        <time>2024-04-07T14:46:02.000Z</time>
      </trkpt>
      <trkpt lat="43.35512" lon="6.18582">
        <ele>306</ele>
        <time>2024-04-07T14:46:16.000Z</time>
      </trkpt>
      <trkpt lat="43.35514" lon="6.18564">
        <ele>306</ele>
        <time>2024-04-07T14:46:26.000Z</time>
      </trkpt>
      <trkpt lat="43.35512" lon="6.18538">
        <ele>306</ele>
        <time>2024-04-07T14:46:40.000Z</time>
      </trkpt>
      <trkpt lat="43.35512" lon="6.18515">
        <ele>301</ele>
        <time>2024-04-07T14:46:54.000Z</time>
      </trkpt>
      <trkpt lat="43.35513" lon="6.18489">
        <ele>301</ele>
        <time>2024-04-07T14:47:09.000Z</time>
      </trkpt>
      <trkpt lat="43.35511" lon="6.18465">
        <ele>301</ele>
        <time>2024-04-07T14:47:22.000Z</time>
      </trkpt>
      <trkpt lat="43.35512" lon="6.18445">
        <ele>301</ele>
        <time>2024-04-07T14:47:33.000Z</time>
      </trkpt>
      <trkpt lat="43.35512" lon="6.18421">
        <ele>310</ele>
        <time>2024-04-07T14:47:47.000Z</time>
      </trkpt>
      <trkpt lat="43.35512" lon="6.18396">
        <ele>324</ele>
        <time>2024-04-07T14:48:02.000Z</time>
      </trkpt>
      <trkpt lat="43.35511" lon="6.1837">
        <ele>310</ele>
        <time>2024-04-07T14:48:16.000Z</time>
      </trkpt>
      <trkpt lat="43.35511" lon="6.18347">
        <ele>310</ele>
        <time>2024-04-07T14:48:30.000Z</time>
      </trkpt>
      <trkpt lat="43.35508" lon="6.18324">
        <ele>310</ele>
        <time>2024-04-07T14:48:44.000Z</time>
      </trkpt>
      <trkpt lat="43.35513" lon="6.18299">
        <ele>310</ele>
        <time>2024-04-07T14:49:14.000Z</time>
      </trkpt>
      <trkpt lat="43.35528" lon="6.18289">
        <ele>310</ele>
        <time>2024-04-07T14:49:34.000Z</time>
      </trkpt>
      <trkpt lat="43.35541" lon="6.18269">
        <ele>310</ele>
        <time>2024-04-07T14:49:49.000Z</time>
      </trkpt>
      <trkpt lat="43.35553" lon="6.1825">
        <ele>310</ele>
        <time>2024-04-07T14:50:03.000Z</time>
      </trkpt>
      <trkpt lat="43.35546" lon="6.18234">
        <ele>331</ele>
        <time>2024-04-07T14:50:17.000Z</time>
      </trkpt>
      <trkpt lat="43.35529" lon="6.1822">
        <ele>310</ele>
        <time>2024-04-07T14:50:32.000Z</time>
      </trkpt>
      <trkpt lat="43.35518" lon="6.18203">
        <ele>310</ele>
        <time>2024-04-07T14:50:47.000Z</time>
      </trkpt>
      <trkpt lat="43.35506" lon="6.1819">
        <ele>310</ele>
        <time>2024-04-07T14:51:01.000Z</time>
      </trkpt>
      <trkpt lat="43.35491" lon="6.18182">
        <ele>318</ele>
        <time>2024-04-07T14:51:14.000Z</time>
      </trkpt>
      <trkpt lat="43.35484" lon="6.18164">
        <ele>318</ele>
        <time>2024-04-07T14:51:28.000Z</time>
      </trkpt>
      <trkpt lat="43.35471" lon="6.18147">
        <ele>319</ele>
        <time>2024-04-07T14:51:43.000Z</time>
      </trkpt>
      <trkpt lat="43.35461" lon="6.18129">
        <ele>319</ele>
        <time>2024-04-07T14:51:57.000Z</time>
      </trkpt>
      <trkpt lat="43.35453" lon="6.1811">
        <ele>302</ele>
        <time>2024-04-07T14:52:12.000Z</time>
      </trkpt>
      <trkpt lat="43.35444" lon="6.18096">
        <ele>302</ele>
        <time>2024-04-07T14:52:26.000Z</time>
      </trkpt>
      <trkpt lat="43.35435" lon="6.18075">
        <ele>307</ele>
        <time>2024-04-07T14:52:40.000Z</time>
      </trkpt>
      <trkpt lat="43.35421" lon="6.18059">
        <ele>307</ele>
        <time>2024-04-07T14:52:55.000Z</time>
      </trkpt>
      <trkpt lat="43.35412" lon="6.18041">
        <ele>307</ele>
        <time>2024-04-07T14:53:09.000Z</time>
      </trkpt>
      <trkpt lat="43.354" lon="6.18019">
        <ele>310</ele>
        <time>2024-04-07T14:53:24.000Z</time>
      </trkpt>
      <trkpt lat="43.3539" lon="6.18002">
        <ele>310</ele>
        <time>2024-04-07T14:53:39.000Z</time>
      </trkpt>
      <trkpt lat="43.35394" lon="6.17982">
        <ele>310</ele>
        <time>2024-04-07T14:53:53.000Z</time>
      </trkpt>
      <trkpt lat="43.35393" lon="6.1796">
        <ele>316</ele>
        <time>2024-04-07T14:54:08.000Z</time>
      </trkpt>
      <trkpt lat="43.35387" lon="6.17941">
        <ele>316</ele>
        <time>2024-04-07T14:54:23.000Z</time>
      </trkpt>
      <trkpt lat="43.35382" lon="6.17919">
        <ele>314</ele>
        <time>2024-04-07T14:54:37.000Z</time>
      </trkpt>
      <trkpt lat="43.35371" lon="6.17906">
        <ele>312</ele>
        <time>2024-04-07T14:54:51.000Z</time>
      </trkpt>
      <trkpt lat="43.35372" lon="6.17883">
        <ele>312</ele>
        <time>2024-04-07T14:55:09.000Z</time>
      </trkpt>
      <trkpt lat="43.35356" lon="6.17869">
        <ele>307</ele>
        <time>2024-04-07T14:55:42.000Z</time>
      </trkpt>
      <trkpt lat="43.35343" lon="6.17856">
        <ele>307</ele>
        <time>2024-04-07T14:55:56.000Z</time>
      </trkpt>
      <trkpt lat="43.35328" lon="6.17843">
        <ele>305</ele>
        <time>2024-04-07T14:56:15.000Z</time>
      </trkpt>
      <trkpt lat="43.35314" lon="6.17834">
        <ele>303</ele>
        <time>2024-04-07T14:56:30.000Z</time>
      </trkpt>
      <trkpt lat="43.35299" lon="6.17825">
        <ele>306</ele>
        <time>2024-04-07T14:56:44.000Z</time>
      </trkpt>
      <trkpt lat="43.35285" lon="6.17815">
        <ele>299</ele>
        <time>2024-04-07T14:56:58.000Z</time>
      </trkpt>
      <trkpt lat="43.35275" lon="6.17796">
        <ele>300</ele>
        <time>2024-04-07T14:57:13.000Z</time>
      </trkpt>
      <trkpt lat="43.35277" lon="6.17772">
        <ele>297</ele>
        <time>2024-04-07T14:57:27.000Z</time>
      </trkpt>
      <trkpt lat="43.35274" lon="6.1775">
        <ele>298</ele>
        <time>2024-04-07T14:57:41.000Z</time>
      </trkpt>
      <trkpt lat="43.35267" lon="6.17729">
        <ele>300</ele>
        <time>2024-04-07T14:57:55.000Z</time>
      </trkpt>
      <trkpt lat="43.35256" lon="6.17707">
        <ele>298</ele>
        <time>2024-04-07T14:58:10.000Z</time>
      </trkpt>
      <trkpt lat="43.3524" lon="6.17701">
        <ele>298</ele>
        <time>2024-04-07T14:58:25.000Z</time>
      </trkpt>
      <trkpt lat="43.35228" lon="6.1769">
        <ele>298</ele>
        <time>2024-04-07T14:58:41.000Z</time>
      </trkpt>
      <trkpt lat="43.35213" lon="6.17688">
        <ele>297</ele>
        <time>2024-04-07T14:58:55.000Z</time>
      </trkpt>
      <trkpt lat="43.35199" lon="6.17693">
        <ele>297</ele>
        <time>2024-04-07T14:59:42.000Z</time>
      </trkpt>
      <trkpt lat="43.35189" lon="6.17711">
        <ele>297</ele>
        <time>2024-04-07T14:59:57.000Z</time>
      </trkpt>
      <trkpt lat="43.35176" lon="6.17724">
        <ele>297</ele>
        <time>2024-04-07T15:00:12.000Z</time>
      </trkpt>
      <trkpt lat="43.35161" lon="6.1772">
        <ele>296</ele>
        <time>2024-04-07T15:00:26.000Z</time>
      </trkpt>
      <trkpt lat="43.35149" lon="6.17739">
        <ele>296</ele>
        <time>2024-04-07T15:01:01.000Z</time>
      </trkpt>
      <trkpt lat="43.35137" lon="6.17756">
        <ele>296</ele>
        <time>2024-04-07T15:01:20.000Z</time>
      </trkpt>
      <trkpt lat="43.35123" lon="6.17767">
        <ele>297</ele>
        <time>2024-04-07T15:01:47.000Z</time>
      </trkpt>
      <trkpt lat="43.35107" lon="6.17765">
        <ele>297</ele>
        <time>2024-04-07T15:02:01.000Z</time>
      </trkpt>
      <trkpt lat="43.35096" lon="6.1775">
        <ele>297</ele>
        <time>2024-04-07T15:02:16.000Z</time>
      </trkpt>
      <trkpt lat="43.3509" lon="6.1773">
        <ele>297</ele>
        <time>2024-04-07T15:02:30.000Z</time>
      </trkpt>
      <trkpt lat="43.35089" lon="6.17711">
        <ele>297</ele>
        <time>2024-04-07T15:03:24.000Z</time>
      </trkpt>
      <trkpt lat="43.35085" lon="6.17687">
        <ele>297</ele>
        <time>2024-04-07T15:03:49.000Z</time>
      </trkpt>
      <trkpt lat="43.35084" lon="6.17664">
        <ele>297</ele>
        <time>2024-04-07T15:04:09.000Z</time>
      </trkpt>
      <trkpt lat="43.35073" lon="6.17652">
        <ele>297</ele>
        <time>2024-04-07T15:04:23.000Z</time>
      </trkpt>
      <trkpt lat="43.35061" lon="6.17637">
        <ele>297</ele>
        <time>2024-04-07T15:04:38.000Z</time>
      </trkpt>
      <trkpt lat="43.35051" lon="6.17623">
        <ele>296</ele>
        <time>2024-04-07T15:04:52.000Z</time>
      </trkpt>
      <trkpt lat="43.35039" lon="6.17607">
        <ele>296</ele>
        <time>2024-04-07T15:05:06.000Z</time>
      </trkpt>
      <trkpt lat="43.35033" lon="6.17586">
        <ele>297</ele>
        <time>2024-04-07T15:05:21.000Z</time>
      </trkpt>
      <trkpt lat="43.35031" lon="6.17561">
        <ele>297</ele>
        <time>2024-04-07T15:05:37.000Z</time>
      </trkpt>
      <trkpt lat="43.35018" lon="6.17552">
        <ele>297</ele>
        <time>2024-04-07T15:07:10.000Z</time>
      </trkpt>
      <trkpt lat="43.35003" lon="6.17555">
        <ele>302</ele>
        <time>2024-04-07T15:07:23.000Z</time>
      </trkpt>
      <trkpt lat="43.3499" lon="6.17546">
        <ele>302</ele>
        <time>2024-04-07T15:07:38.000Z</time>
      </trkpt>
      <trkpt lat="43.34975" lon="6.17539">
        <ele>302</ele>
        <time>2024-04-07T15:07:52.000Z</time>
      </trkpt>
      <trkpt lat="43.34968" lon="6.17556">
        <ele>301</ele>
        <time>2024-04-07T15:08:13.000Z</time>
      </trkpt>
      <trkpt lat="43.34967" lon="6.17578">
        <ele>300</ele>
        <time>2024-04-07T15:08:28.000Z</time>
      </trkpt>
      <trkpt lat="43.34976" lon="6.17593">
        <ele>299</ele>
        <time>2024-04-07T15:08:43.000Z</time>
      </trkpt>
      <trkpt lat="43.34963" lon="6.17607">
        <ele>299</ele>
        <time>2024-04-07T15:09:06.000Z</time>
      </trkpt>
      <trkpt lat="43.34947" lon="6.17619">
        <ele>298</ele>
        <time>2024-04-07T15:09:21.000Z</time>
      </trkpt>
      <trkpt lat="43.34933" lon="6.17632">
        <ele>298</ele>
        <time>2024-04-07T15:09:44.000Z</time>
      </trkpt>
      <trkpt lat="43.34941" lon="6.17661">
        <ele>298</ele>
        <time>2024-04-07T15:11:06.000Z</time>
      </trkpt>
      <trkpt lat="43.34934" lon="6.17681">
        <ele>298</ele>
        <time>2024-04-07T15:11:40.000Z</time>
      </trkpt>
      <trkpt lat="43.34918" lon="6.17686">
        <ele>298</ele>
        <time>2024-04-07T15:11:59.000Z</time>
      </trkpt>
      <trkpt lat="43.34904" lon="6.17696">
        <ele>297</ele>
        <time>2024-04-07T15:12:14.000Z</time>
      </trkpt>
      <trkpt lat="43.34894" lon="6.1771">
        <ele>298</ele>
        <time>2024-04-07T15:12:29.000Z</time>
      </trkpt>
      <trkpt lat="43.34882" lon="6.17722">
        <ele>298</ele>
        <time>2024-04-07T15:12:43.000Z</time>
      </trkpt>
      <trkpt lat="43.3487" lon="6.17733">
        <ele>298</ele>
        <time>2024-04-07T15:12:58.000Z</time>
      </trkpt>
      <trkpt lat="43.34853" lon="6.17738">
        <ele>298</ele>
        <time>2024-04-07T15:13:13.000Z</time>
      </trkpt>
      <trkpt lat="43.34839" lon="6.17744">
        <ele>298</ele>
        <time>2024-04-07T15:13:27.000Z</time>
      </trkpt>
    </trkseg>
  </trk>
</gpx>